<?xml version="1.0" encoding="UTF-8" standalone="no" ?>
<gpx xmlns="http://www.topografix.com/GPX/1/1" xmlns:xsi="http://www.w3.org/2001/XMLSchema-instance" xsi:schemaLocation="http://www.topografix.com/GPX/1/1 http://www.topografix.com/GPX/1/1/gpx.xsd" version="1.1" creator="VisuGPX - https://www.visugpx.com">
  <metadata>
    <name>16-JUIL-19 ile d'ARZ Morbihan</name>
    <desc><![CDATA[Le tour de l'ile au milieu du golf du Morbihan.Plages, oiseaux, ostreiculture.]]></desc>
  </metadata>
  <trk>
    <name><![CDATA[16-JUIL-19 03:06:26 PM]]></name>
    <trkseg>
      <trkpt lat="47.60614" lon="-2.79283">
        <ele>-9</ele>
        <time>2019-07-16T07:57:02Z</time>
      </trkpt>
      <trkpt lat="47.60614" lon="-2.79284">
        <ele>-1.3</ele>
        <time>2019-07-16T07:57:17Z</time>
      </trkpt>
      <trkpt lat="47.60614" lon="-2.79285">
        <ele>2.54</ele>
        <time>2019-07-16T07:57:32Z</time>
      </trkpt>
      <trkpt lat="47.60612" lon="-2.79287">
        <ele>5.91</ele>
        <time>2019-07-16T07:57:47Z</time>
      </trkpt>
      <trkpt lat="47.60612" lon="-2.79284">
        <ele>7.35</ele>
        <time>2019-07-16T07:58:02Z</time>
      </trkpt>
      <trkpt lat="47.60612" lon="-2.79284">
        <ele>8.31</ele>
        <time>2019-07-16T07:58:17Z</time>
      </trkpt>
      <trkpt lat="47.60617" lon="-2.79289">
        <ele>8.31</ele>
        <time>2019-07-16T07:58:32Z</time>
      </trkpt>
      <trkpt lat="47.60618" lon="-2.7929">
        <ele>7.83</ele>
        <time>2019-07-16T07:58:47Z</time>
      </trkpt>
      <trkpt lat="47.60618" lon="-2.7929">
        <ele>7.83</ele>
        <time>2019-07-16T07:59:02Z</time>
      </trkpt>
      <trkpt lat="47.60618" lon="-2.7929">
        <ele>8.79</ele>
        <time>2019-07-16T07:59:17Z</time>
      </trkpt>
      <trkpt lat="47.60612" lon="-2.79282">
        <ele>9.27</ele>
        <time>2019-07-16T07:59:32Z</time>
      </trkpt>
      <trkpt lat="47.60612" lon="-2.79284">
        <ele>8.79</ele>
        <time>2019-07-16T07:59:47Z</time>
      </trkpt>
      <trkpt lat="47.60616" lon="-2.79294">
        <ele>9.27</ele>
        <time>2019-07-16T08:00:02Z</time>
      </trkpt>
      <trkpt lat="47.60608" lon="-2.79308">
        <ele>8.31</ele>
        <time>2019-07-16T08:00:17Z</time>
      </trkpt>
      <trkpt lat="47.60599" lon="-2.79326">
        <ele>7.83</ele>
        <time>2019-07-16T08:00:32Z</time>
      </trkpt>
      <trkpt lat="47.60586" lon="-2.79338">
        <ele>8.31</ele>
        <time>2019-07-16T08:00:47Z</time>
      </trkpt>
      <trkpt lat="47.60582" lon="-2.79346">
        <ele>8.79</ele>
        <time>2019-07-16T08:01:02Z</time>
      </trkpt>
      <trkpt lat="47.60569" lon="-2.79355">
        <ele>8.31</ele>
        <time>2019-07-16T08:01:17Z</time>
      </trkpt>
      <trkpt lat="47.6056" lon="-2.79377">
        <ele>9.27</ele>
        <time>2019-07-16T08:01:32Z</time>
      </trkpt>
      <trkpt lat="47.60556" lon="-2.79401">
        <ele>9.75</ele>
        <time>2019-07-16T08:01:47Z</time>
      </trkpt>
      <trkpt lat="47.60549" lon="-2.79422">
        <ele>10.23</ele>
        <time>2019-07-16T08:02:02Z</time>
      </trkpt>
      <trkpt lat="47.60538" lon="-2.79444">
        <ele>10.71</ele>
        <time>2019-07-16T08:02:17Z</time>
      </trkpt>
      <trkpt lat="47.60533" lon="-2.79451">
        <ele>10.71</ele>
        <time>2019-07-16T08:02:32Z</time>
      </trkpt>
      <trkpt lat="47.60531" lon="-2.79459">
        <ele>10.71</ele>
        <time>2019-07-16T08:02:47Z</time>
      </trkpt>
      <trkpt lat="47.6052" lon="-2.79481">
        <ele>11.19</ele>
        <time>2019-07-16T08:03:02Z</time>
      </trkpt>
      <trkpt lat="47.60509" lon="-2.795">
        <ele>11.19</ele>
        <time>2019-07-16T08:03:17Z</time>
      </trkpt>
      <trkpt lat="47.60496" lon="-2.79517">
        <ele>11.19</ele>
        <time>2019-07-16T08:03:32Z</time>
      </trkpt>
      <trkpt lat="47.60486" lon="-2.79533">
        <ele>11.67</ele>
        <time>2019-07-16T08:03:47Z</time>
      </trkpt>
      <trkpt lat="47.60479" lon="-2.79546">
        <ele>10.71</ele>
        <time>2019-07-16T08:04:02Z</time>
      </trkpt>
      <trkpt lat="47.60476" lon="-2.79551">
        <ele>10.23</ele>
        <time>2019-07-16T08:04:17Z</time>
      </trkpt>
      <trkpt lat="47.60473" lon="-2.7955">
        <ele>10.71</ele>
        <time>2019-07-16T08:04:32Z</time>
      </trkpt>
      <trkpt lat="47.60466" lon="-2.79563">
        <ele>10.71</ele>
        <time>2019-07-16T08:04:47Z</time>
      </trkpt>
      <trkpt lat="47.60452" lon="-2.79575">
        <ele>10.23</ele>
        <time>2019-07-16T08:05:02Z</time>
      </trkpt>
      <trkpt lat="47.60434" lon="-2.79588">
        <ele>9.75</ele>
        <time>2019-07-16T08:05:17Z</time>
      </trkpt>
      <trkpt lat="47.60414" lon="-2.7959">
        <ele>8.79</ele>
        <time>2019-07-16T08:05:32Z</time>
      </trkpt>
      <trkpt lat="47.60402" lon="-2.79582">
        <ele>8.31</ele>
        <time>2019-07-16T08:05:47Z</time>
      </trkpt>
      <trkpt lat="47.60385" lon="-2.79573">
        <ele>7.35</ele>
        <time>2019-07-16T08:06:02Z</time>
      </trkpt>
      <trkpt lat="47.60368" lon="-2.79563">
        <ele>7.35</ele>
        <time>2019-07-16T08:06:17Z</time>
      </trkpt>
      <trkpt lat="47.60351" lon="-2.79556">
        <ele>7.83</ele>
        <time>2019-07-16T08:06:32Z</time>
      </trkpt>
      <trkpt lat="47.60334" lon="-2.79548">
        <ele>8.31</ele>
        <time>2019-07-16T08:06:47Z</time>
      </trkpt>
      <trkpt lat="47.60315" lon="-2.79543">
        <ele>8.31</ele>
        <time>2019-07-16T08:07:02Z</time>
      </trkpt>
      <trkpt lat="47.60298" lon="-2.79537">
        <ele>8.79</ele>
        <time>2019-07-16T08:07:17Z</time>
      </trkpt>
      <trkpt lat="47.6028" lon="-2.79532">
        <ele>8.79</ele>
        <time>2019-07-16T08:07:32Z</time>
      </trkpt>
      <trkpt lat="47.60263" lon="-2.79526">
        <ele>8.31</ele>
        <time>2019-07-16T08:07:47Z</time>
      </trkpt>
      <trkpt lat="47.60246" lon="-2.79523">
        <ele>8.31</ele>
        <time>2019-07-16T08:08:02Z</time>
      </trkpt>
      <trkpt lat="47.60227" lon="-2.7952">
        <ele>7.35</ele>
        <time>2019-07-16T08:08:17Z</time>
      </trkpt>
      <trkpt lat="47.60209" lon="-2.79516">
        <ele>7.83</ele>
        <time>2019-07-16T08:08:32Z</time>
      </trkpt>
      <trkpt lat="47.60191" lon="-2.79513">
        <ele>7.35</ele>
        <time>2019-07-16T08:08:47Z</time>
      </trkpt>
      <trkpt lat="47.60173" lon="-2.79511">
        <ele>7.35</ele>
        <time>2019-07-16T08:09:02Z</time>
      </trkpt>
      <trkpt lat="47.60155" lon="-2.79508">
        <ele>7.35</ele>
        <time>2019-07-16T08:09:17Z</time>
      </trkpt>
      <trkpt lat="47.60138" lon="-2.79506">
        <ele>7.35</ele>
        <time>2019-07-16T08:09:32Z</time>
      </trkpt>
      <trkpt lat="47.60129" lon="-2.79505">
        <ele>7.35</ele>
        <time>2019-07-16T08:09:47Z</time>
      </trkpt>
      <trkpt lat="47.60111" lon="-2.79507">
        <ele>7.83</ele>
        <time>2019-07-16T08:10:02Z</time>
      </trkpt>
      <trkpt lat="47.60095" lon="-2.79505">
        <ele>7.83</ele>
        <time>2019-07-16T08:10:17Z</time>
      </trkpt>
      <trkpt lat="47.60077" lon="-2.79504">
        <ele>6.87</ele>
        <time>2019-07-16T08:10:32Z</time>
      </trkpt>
      <trkpt lat="47.6006" lon="-2.79503">
        <ele>7.35</ele>
        <time>2019-07-16T08:10:47Z</time>
      </trkpt>
      <trkpt lat="47.60041" lon="-2.79505">
        <ele>7.35</ele>
        <time>2019-07-16T08:11:02Z</time>
      </trkpt>
      <trkpt lat="47.60024" lon="-2.79505">
        <ele>7.35</ele>
        <time>2019-07-16T08:11:17Z</time>
      </trkpt>
      <trkpt lat="47.60005" lon="-2.79508">
        <ele>7.35</ele>
        <time>2019-07-16T08:11:32Z</time>
      </trkpt>
      <trkpt lat="47.59987" lon="-2.79512">
        <ele>7.35</ele>
        <time>2019-07-16T08:11:47Z</time>
      </trkpt>
      <trkpt lat="47.59969" lon="-2.79516">
        <ele>6.87</ele>
        <time>2019-07-16T08:12:02Z</time>
      </trkpt>
      <trkpt lat="47.59951" lon="-2.79522">
        <ele>7.35</ele>
        <time>2019-07-16T08:12:17Z</time>
      </trkpt>
      <trkpt lat="47.59933" lon="-2.7953">
        <ele>7.83</ele>
        <time>2019-07-16T08:12:32Z</time>
      </trkpt>
      <trkpt lat="47.59916" lon="-2.79538">
        <ele>7.35</ele>
        <time>2019-07-16T08:12:47Z</time>
      </trkpt>
      <trkpt lat="47.59898" lon="-2.79548">
        <ele>7.35</ele>
        <time>2019-07-16T08:13:02Z</time>
      </trkpt>
      <trkpt lat="47.59881" lon="-2.79558">
        <ele>7.35</ele>
        <time>2019-07-16T08:13:17Z</time>
      </trkpt>
      <trkpt lat="47.59866" lon="-2.7957">
        <ele>7.35</ele>
        <time>2019-07-16T08:13:32Z</time>
      </trkpt>
      <trkpt lat="47.59851" lon="-2.79585">
        <ele>7.35</ele>
        <time>2019-07-16T08:13:47Z</time>
      </trkpt>
      <trkpt lat="47.59836" lon="-2.79602">
        <ele>7.83</ele>
        <time>2019-07-16T08:14:02Z</time>
      </trkpt>
      <trkpt lat="47.59821" lon="-2.79619">
        <ele>7.83</ele>
        <time>2019-07-16T08:14:17Z</time>
      </trkpt>
      <trkpt lat="47.59807" lon="-2.79634">
        <ele>7.35</ele>
        <time>2019-07-16T08:14:32Z</time>
      </trkpt>
      <trkpt lat="47.59792" lon="-2.79642">
        <ele>7.83</ele>
        <time>2019-07-16T08:14:47Z</time>
      </trkpt>
      <trkpt lat="47.59779" lon="-2.79657">
        <ele>8.31</ele>
        <time>2019-07-16T08:15:02Z</time>
      </trkpt>
      <trkpt lat="47.59776" lon="-2.79678">
        <ele>7.83</ele>
        <time>2019-07-16T08:15:17Z</time>
      </trkpt>
      <trkpt lat="47.59778" lon="-2.79688">
        <ele>8.31</ele>
        <time>2019-07-16T08:15:32Z</time>
      </trkpt>
      <trkpt lat="47.59779" lon="-2.79689">
        <ele>8.31</ele>
        <time>2019-07-16T08:15:47Z</time>
      </trkpt>
      <trkpt lat="47.59779" lon="-2.79691">
        <ele>7.83</ele>
        <time>2019-07-16T08:16:02Z</time>
      </trkpt>
      <trkpt lat="47.59771" lon="-2.797">
        <ele>7.83</ele>
        <time>2019-07-16T08:16:17Z</time>
      </trkpt>
      <trkpt lat="47.59763" lon="-2.79722">
        <ele>7.83</ele>
        <time>2019-07-16T08:16:32Z</time>
      </trkpt>
      <trkpt lat="47.59755" lon="-2.79748">
        <ele>7.83</ele>
        <time>2019-07-16T08:16:47Z</time>
      </trkpt>
      <trkpt lat="47.59744" lon="-2.79771">
        <ele>7.35</ele>
        <time>2019-07-16T08:17:02Z</time>
      </trkpt>
      <trkpt lat="47.59733" lon="-2.79793">
        <ele>7.35</ele>
        <time>2019-07-16T08:17:17Z</time>
      </trkpt>
      <trkpt lat="47.59729" lon="-2.79807">
        <ele>6.87</ele>
        <time>2019-07-16T08:17:32Z</time>
      </trkpt>
      <trkpt lat="47.59727" lon="-2.79811">
        <ele>7.35</ele>
        <time>2019-07-16T08:17:47Z</time>
      </trkpt>
      <trkpt lat="47.59724" lon="-2.79835">
        <ele>6.87</ele>
        <time>2019-07-16T08:18:02Z</time>
      </trkpt>
      <trkpt lat="47.59716" lon="-2.79861">
        <ele>6.87</ele>
        <time>2019-07-16T08:18:17Z</time>
      </trkpt>
      <trkpt lat="47.59709" lon="-2.79886">
        <ele>6.87</ele>
        <time>2019-07-16T08:18:32Z</time>
      </trkpt>
      <trkpt lat="47.597" lon="-2.7991">
        <ele>6.87</ele>
        <time>2019-07-16T08:18:47Z</time>
      </trkpt>
      <trkpt lat="47.59692" lon="-2.79934">
        <ele>6.39</ele>
        <time>2019-07-16T08:19:02Z</time>
      </trkpt>
      <trkpt lat="47.59681" lon="-2.79957">
        <ele>6.39</ele>
        <time>2019-07-16T08:19:17Z</time>
      </trkpt>
      <trkpt lat="47.5968" lon="-2.79981">
        <ele>6.39</ele>
        <time>2019-07-16T08:19:32Z</time>
      </trkpt>
      <trkpt lat="47.59685" lon="-2.80007">
        <ele>6.39</ele>
        <time>2019-07-16T08:19:47Z</time>
      </trkpt>
      <trkpt lat="47.59688" lon="-2.80035">
        <ele>5.91</ele>
        <time>2019-07-16T08:20:02Z</time>
      </trkpt>
      <trkpt lat="47.59694" lon="-2.80062">
        <ele>6.39</ele>
        <time>2019-07-16T08:20:17Z</time>
      </trkpt>
      <trkpt lat="47.59703" lon="-2.80088">
        <ele>5.91</ele>
        <time>2019-07-16T08:20:32Z</time>
      </trkpt>
      <trkpt lat="47.59706" lon="-2.80112">
        <ele>6.39</ele>
        <time>2019-07-16T08:20:47Z</time>
      </trkpt>
      <trkpt lat="47.59715" lon="-2.80133">
        <ele>6.39</ele>
        <time>2019-07-16T08:21:02Z</time>
      </trkpt>
      <trkpt lat="47.59717" lon="-2.80162">
        <ele>6.39</ele>
        <time>2019-07-16T08:21:17Z</time>
      </trkpt>
      <trkpt lat="47.59716" lon="-2.80172">
        <ele>6.87</ele>
        <time>2019-07-16T08:21:32Z</time>
      </trkpt>
      <trkpt lat="47.59709" lon="-2.80189">
        <ele>6.87</ele>
        <time>2019-07-16T08:21:47Z</time>
      </trkpt>
      <trkpt lat="47.59698" lon="-2.80182">
        <ele>6.87</ele>
        <time>2019-07-16T08:22:02Z</time>
      </trkpt>
      <trkpt lat="47.59696" lon="-2.80181">
        <ele>6.39</ele>
        <time>2019-07-16T08:22:17Z</time>
      </trkpt>
      <trkpt lat="47.59695" lon="-2.80182">
        <ele>6.87</ele>
        <time>2019-07-16T08:22:32Z</time>
      </trkpt>
      <trkpt lat="47.59701" lon="-2.80195">
        <ele>6.39</ele>
        <time>2019-07-16T08:22:47Z</time>
      </trkpt>
      <trkpt lat="47.59695" lon="-2.80221">
        <ele>6.87</ele>
        <time>2019-07-16T08:23:02Z</time>
      </trkpt>
      <trkpt lat="47.59693" lon="-2.80236">
        <ele>6.39</ele>
        <time>2019-07-16T08:23:17Z</time>
      </trkpt>
      <trkpt lat="47.59678" lon="-2.80242">
        <ele>5.91</ele>
        <time>2019-07-16T08:23:32Z</time>
      </trkpt>
      <trkpt lat="47.59671" lon="-2.80246">
        <ele>6.39</ele>
        <time>2019-07-16T08:23:47Z</time>
      </trkpt>
      <trkpt lat="47.59689" lon="-2.80254">
        <ele>5.42</ele>
        <time>2019-07-16T08:24:02Z</time>
      </trkpt>
      <trkpt lat="47.59688" lon="-2.80283">
        <ele>5.42</ele>
        <time>2019-07-16T08:24:17Z</time>
      </trkpt>
      <trkpt lat="47.59687" lon="-2.80298">
        <ele>5.42</ele>
        <time>2019-07-16T08:24:32Z</time>
      </trkpt>
      <trkpt lat="47.59682" lon="-2.80326">
        <ele>5.42</ele>
        <time>2019-07-16T08:24:47Z</time>
      </trkpt>
      <trkpt lat="47.59678" lon="-2.80348">
        <ele>5.42</ele>
        <time>2019-07-16T08:25:02Z</time>
      </trkpt>
      <trkpt lat="47.59676" lon="-2.80377">
        <ele>5.42</ele>
        <time>2019-07-16T08:25:17Z</time>
      </trkpt>
      <trkpt lat="47.59674" lon="-2.80378">
        <ele>5.42</ele>
        <time>2019-07-16T08:25:32Z</time>
      </trkpt>
      <trkpt lat="47.59674" lon="-2.8038">
        <ele>5.91</ele>
        <time>2019-07-16T08:25:47Z</time>
      </trkpt>
      <trkpt lat="47.59674" lon="-2.80383">
        <ele>5.42</ele>
        <time>2019-07-16T08:26:02Z</time>
      </trkpt>
      <trkpt lat="47.59672" lon="-2.80402">
        <ele>5.42</ele>
        <time>2019-07-16T08:26:17Z</time>
      </trkpt>
      <trkpt lat="47.59669" lon="-2.80425">
        <ele>5.42</ele>
        <time>2019-07-16T08:26:32Z</time>
      </trkpt>
      <trkpt lat="47.59669" lon="-2.80424">
        <ele>5.91</ele>
        <time>2019-07-16T08:26:47Z</time>
      </trkpt>
      <trkpt lat="47.59668" lon="-2.80432">
        <ele>4.94</ele>
        <time>2019-07-16T08:27:02Z</time>
      </trkpt>
      <trkpt lat="47.59663" lon="-2.80448">
        <ele>5.42</ele>
        <time>2019-07-16T08:27:17Z</time>
      </trkpt>
      <trkpt lat="47.59665" lon="-2.80464">
        <ele>5.91</ele>
        <time>2019-07-16T08:27:32Z</time>
      </trkpt>
      <trkpt lat="47.59664" lon="-2.80469">
        <ele>5.91</ele>
        <time>2019-07-16T08:27:47Z</time>
      </trkpt>
      <trkpt lat="47.59664" lon="-2.8047">
        <ele>5.91</ele>
        <time>2019-07-16T08:28:02Z</time>
      </trkpt>
      <trkpt lat="47.59661" lon="-2.80476">
        <ele>5.91</ele>
        <time>2019-07-16T08:28:17Z</time>
      </trkpt>
      <trkpt lat="47.59658" lon="-2.80482">
        <ele>5.91</ele>
        <time>2019-07-16T08:28:32Z</time>
      </trkpt>
      <trkpt lat="47.59654" lon="-2.805">
        <ele>5.91</ele>
        <time>2019-07-16T08:28:47Z</time>
      </trkpt>
      <trkpt lat="47.59644" lon="-2.80525">
        <ele>5.42</ele>
        <time>2019-07-16T08:29:02Z</time>
      </trkpt>
      <trkpt lat="47.59634" lon="-2.8055">
        <ele>5.42</ele>
        <time>2019-07-16T08:29:17Z</time>
      </trkpt>
      <trkpt lat="47.59624" lon="-2.80575">
        <ele>5.42</ele>
        <time>2019-07-16T08:29:32Z</time>
      </trkpt>
      <trkpt lat="47.59616" lon="-2.80602">
        <ele>5.42</ele>
        <time>2019-07-16T08:29:47Z</time>
      </trkpt>
      <trkpt lat="47.59609" lon="-2.80624">
        <ele>5.42</ele>
        <time>2019-07-16T08:30:02Z</time>
      </trkpt>
      <trkpt lat="47.59606" lon="-2.80641">
        <ele>5.91</ele>
        <time>2019-07-16T08:30:17Z</time>
      </trkpt>
      <trkpt lat="47.59606" lon="-2.80646">
        <ele>5.91</ele>
        <time>2019-07-16T08:30:32Z</time>
      </trkpt>
      <trkpt lat="47.59595" lon="-2.80649">
        <ele>5.42</ele>
        <time>2019-07-16T08:30:47Z</time>
      </trkpt>
      <trkpt lat="47.59588" lon="-2.80625">
        <ele>5.42</ele>
        <time>2019-07-16T08:31:02Z</time>
      </trkpt>
      <trkpt lat="47.5959" lon="-2.8062">
        <ele>4.94</ele>
        <time>2019-07-16T08:31:17Z</time>
      </trkpt>
      <trkpt lat="47.59588" lon="-2.80614">
        <ele>4.94</ele>
        <time>2019-07-16T08:31:32Z</time>
      </trkpt>
      <trkpt lat="47.5959" lon="-2.80614">
        <ele>5.42</ele>
        <time>2019-07-16T08:31:47Z</time>
      </trkpt>
      <trkpt lat="47.5959" lon="-2.80639">
        <ele>5.91</ele>
        <time>2019-07-16T08:32:02Z</time>
      </trkpt>
      <trkpt lat="47.59604" lon="-2.80655">
        <ele>6.39</ele>
        <time>2019-07-16T08:32:17Z</time>
      </trkpt>
      <trkpt lat="47.59617" lon="-2.80671">
        <ele>6.39</ele>
        <time>2019-07-16T08:32:32Z</time>
      </trkpt>
      <trkpt lat="47.59621" lon="-2.80679">
        <ele>6.39</ele>
        <time>2019-07-16T08:32:47Z</time>
      </trkpt>
      <trkpt lat="47.59623" lon="-2.80685">
        <ele>6.39</ele>
        <time>2019-07-16T08:33:02Z</time>
      </trkpt>
      <trkpt lat="47.5962" lon="-2.80696">
        <ele>7.35</ele>
        <time>2019-07-16T08:33:17Z</time>
      </trkpt>
      <trkpt lat="47.5962" lon="-2.80696">
        <ele>6.87</ele>
        <time>2019-07-16T08:33:32Z</time>
      </trkpt>
      <trkpt lat="47.59624" lon="-2.80712">
        <ele>6.39</ele>
        <time>2019-07-16T08:33:47Z</time>
      </trkpt>
      <trkpt lat="47.59623" lon="-2.80713">
        <ele>6.87</ele>
        <time>2019-07-16T08:34:02Z</time>
      </trkpt>
      <trkpt lat="47.59621" lon="-2.80713">
        <ele>6.87</ele>
        <time>2019-07-16T08:34:17Z</time>
      </trkpt>
      <trkpt lat="47.59622" lon="-2.80713">
        <ele>6.87</ele>
        <time>2019-07-16T08:34:32Z</time>
      </trkpt>
      <trkpt lat="47.59621" lon="-2.80701">
        <ele>6.87</ele>
        <time>2019-07-16T08:34:47Z</time>
      </trkpt>
      <trkpt lat="47.5962" lon="-2.80692">
        <ele>7.35</ele>
        <time>2019-07-16T08:35:02Z</time>
      </trkpt>
      <trkpt lat="47.59618" lon="-2.80694">
        <ele>6.87</ele>
        <time>2019-07-16T08:35:17Z</time>
      </trkpt>
      <trkpt lat="47.59618" lon="-2.80695">
        <ele>7.35</ele>
        <time>2019-07-16T08:35:32Z</time>
      </trkpt>
      <trkpt lat="47.59616" lon="-2.80694">
        <ele>7.35</ele>
        <time>2019-07-16T08:35:47Z</time>
      </trkpt>
      <trkpt lat="47.59622" lon="-2.80696">
        <ele>7.83</ele>
        <time>2019-07-16T08:36:02Z</time>
      </trkpt>
      <trkpt lat="47.59621" lon="-2.80694">
        <ele>6.39</ele>
        <time>2019-07-16T08:36:17Z</time>
      </trkpt>
      <trkpt lat="47.59621" lon="-2.80695">
        <ele>6.39</ele>
        <time>2019-07-16T08:36:32Z</time>
      </trkpt>
      <trkpt lat="47.5962" lon="-2.80694">
        <ele>6.39</ele>
        <time>2019-07-16T08:36:47Z</time>
      </trkpt>
      <trkpt lat="47.59621" lon="-2.80695">
        <ele>6.39</ele>
        <time>2019-07-16T08:37:02Z</time>
      </trkpt>
      <trkpt lat="47.59622" lon="-2.80695">
        <ele>6.39</ele>
        <time>2019-07-16T08:37:17Z</time>
      </trkpt>
      <trkpt lat="47.59621" lon="-2.80695">
        <ele>7.35</ele>
        <time>2019-07-16T08:37:32Z</time>
      </trkpt>
      <trkpt lat="47.59622" lon="-2.80696">
        <ele>7.83</ele>
        <time>2019-07-16T08:37:47Z</time>
      </trkpt>
      <trkpt lat="47.59625" lon="-2.80702">
        <ele>7.83</ele>
        <time>2019-07-16T08:38:02Z</time>
      </trkpt>
      <trkpt lat="47.59632" lon="-2.80726">
        <ele>7.83</ele>
        <time>2019-07-16T08:38:17Z</time>
      </trkpt>
      <trkpt lat="47.59639" lon="-2.80753">
        <ele>7.35</ele>
        <time>2019-07-16T08:38:32Z</time>
      </trkpt>
      <trkpt lat="47.59646" lon="-2.80777">
        <ele>7.83</ele>
        <time>2019-07-16T08:38:47Z</time>
      </trkpt>
      <trkpt lat="47.59655" lon="-2.80802">
        <ele>7.83</ele>
        <time>2019-07-16T08:39:02Z</time>
      </trkpt>
      <trkpt lat="47.5966" lon="-2.80828">
        <ele>7.35</ele>
        <time>2019-07-16T08:39:17Z</time>
      </trkpt>
      <trkpt lat="47.59666" lon="-2.80852">
        <ele>7.83</ele>
        <time>2019-07-16T08:39:32Z</time>
      </trkpt>
      <trkpt lat="47.59673" lon="-2.80876">
        <ele>7.83</ele>
        <time>2019-07-16T08:39:47Z</time>
      </trkpt>
      <trkpt lat="47.59682" lon="-2.80901">
        <ele>7.83</ele>
        <time>2019-07-16T08:40:02Z</time>
      </trkpt>
      <trkpt lat="47.59686" lon="-2.80913">
        <ele>7.35</ele>
        <time>2019-07-16T08:40:17Z</time>
      </trkpt>
      <trkpt lat="47.59697" lon="-2.80938">
        <ele>7.35</ele>
        <time>2019-07-16T08:40:32Z</time>
      </trkpt>
      <trkpt lat="47.59707" lon="-2.8096">
        <ele>7.35</ele>
        <time>2019-07-16T08:40:47Z</time>
      </trkpt>
      <trkpt lat="47.5972" lon="-2.80982">
        <ele>6.87</ele>
        <time>2019-07-16T08:41:02Z</time>
      </trkpt>
      <trkpt lat="47.59732" lon="-2.81003">
        <ele>7.35</ele>
        <time>2019-07-16T08:41:17Z</time>
      </trkpt>
      <trkpt lat="47.59746" lon="-2.81025">
        <ele>6.87</ele>
        <time>2019-07-16T08:41:32Z</time>
      </trkpt>
      <trkpt lat="47.59743" lon="-2.81025">
        <ele>6.87</ele>
        <time>2019-07-16T08:41:47Z</time>
      </trkpt>
      <trkpt lat="47.59756" lon="-2.81043">
        <ele>7.35</ele>
        <time>2019-07-16T08:42:02Z</time>
      </trkpt>
      <trkpt lat="47.59772" lon="-2.81062">
        <ele>7.35</ele>
        <time>2019-07-16T08:42:17Z</time>
      </trkpt>
      <trkpt lat="47.59789" lon="-2.8108">
        <ele>7.83</ele>
        <time>2019-07-16T08:42:32Z</time>
      </trkpt>
      <trkpt lat="47.59802" lon="-2.81101">
        <ele>8.31</ele>
        <time>2019-07-16T08:42:47Z</time>
      </trkpt>
      <trkpt lat="47.59808" lon="-2.81124">
        <ele>8.31</ele>
        <time>2019-07-16T08:43:02Z</time>
      </trkpt>
      <trkpt lat="47.59816" lon="-2.81146">
        <ele>8.31</ele>
        <time>2019-07-16T08:43:17Z</time>
      </trkpt>
      <trkpt lat="47.59824" lon="-2.81168">
        <ele>7.35</ele>
        <time>2019-07-16T08:43:32Z</time>
      </trkpt>
      <trkpt lat="47.59833" lon="-2.81184">
        <ele>7.35</ele>
        <time>2019-07-16T08:43:47Z</time>
      </trkpt>
      <trkpt lat="47.59846" lon="-2.81201">
        <ele>6.87</ele>
        <time>2019-07-16T08:44:02Z</time>
      </trkpt>
      <trkpt lat="47.5985" lon="-2.812">
        <ele>6.87</ele>
        <time>2019-07-16T08:44:17Z</time>
      </trkpt>
      <trkpt lat="47.59852" lon="-2.81201">
        <ele>5.91</ele>
        <time>2019-07-16T08:44:32Z</time>
      </trkpt>
      <trkpt lat="47.59864" lon="-2.81213">
        <ele>6.39</ele>
        <time>2019-07-16T08:44:47Z</time>
      </trkpt>
      <trkpt lat="47.59874" lon="-2.81229">
        <ele>6.39</ele>
        <time>2019-07-16T08:45:02Z</time>
      </trkpt>
      <trkpt lat="47.59875" lon="-2.81244">
        <ele>6.87</ele>
        <time>2019-07-16T08:45:17Z</time>
      </trkpt>
      <trkpt lat="47.59885" lon="-2.81258">
        <ele>6.87</ele>
        <time>2019-07-16T08:45:32Z</time>
      </trkpt>
      <trkpt lat="47.59894" lon="-2.81278">
        <ele>6.87</ele>
        <time>2019-07-16T08:45:47Z</time>
      </trkpt>
      <trkpt lat="47.599" lon="-2.81277">
        <ele>6.87</ele>
        <time>2019-07-16T08:46:02Z</time>
      </trkpt>
      <trkpt lat="47.59913" lon="-2.81265">
        <ele>4.94</ele>
        <time>2019-07-16T08:46:17Z</time>
      </trkpt>
      <trkpt lat="47.59915" lon="-2.81268">
        <ele>4.46</ele>
        <time>2019-07-16T08:46:32Z</time>
      </trkpt>
      <trkpt lat="47.59916" lon="-2.81268">
        <ele>4.46</ele>
        <time>2019-07-16T08:46:47Z</time>
      </trkpt>
      <trkpt lat="47.59903" lon="-2.81277">
        <ele>6.39</ele>
        <time>2019-07-16T08:47:02Z</time>
      </trkpt>
      <trkpt lat="47.599" lon="-2.81281">
        <ele>6.87</ele>
        <time>2019-07-16T08:47:17Z</time>
      </trkpt>
      <trkpt lat="47.59893" lon="-2.81283">
        <ele>6.87</ele>
        <time>2019-07-16T08:47:32Z</time>
      </trkpt>
      <trkpt lat="47.59879" lon="-2.81288">
        <ele>6.87</ele>
        <time>2019-07-16T08:47:47Z</time>
      </trkpt>
      <trkpt lat="47.59863" lon="-2.8129">
        <ele>7.83</ele>
        <time>2019-07-16T08:48:02Z</time>
      </trkpt>
      <trkpt lat="47.59846" lon="-2.81301">
        <ele>7.83</ele>
        <time>2019-07-16T08:48:17Z</time>
      </trkpt>
      <trkpt lat="47.59829" lon="-2.81297">
        <ele>7.83</ele>
        <time>2019-07-16T08:48:32Z</time>
      </trkpt>
      <trkpt lat="47.59817" lon="-2.8129">
        <ele>7.35</ele>
        <time>2019-07-16T08:48:47Z</time>
      </trkpt>
      <trkpt lat="47.59817" lon="-2.8129">
        <ele>6.87</ele>
        <time>2019-07-16T08:49:02Z</time>
      </trkpt>
      <trkpt lat="47.59809" lon="-2.81281">
        <ele>7.35</ele>
        <time>2019-07-16T08:49:17Z</time>
      </trkpt>
      <trkpt lat="47.59799" lon="-2.81274">
        <ele>7.83</ele>
        <time>2019-07-16T08:49:32Z</time>
      </trkpt>
      <trkpt lat="47.59787" lon="-2.81266">
        <ele>7.83</ele>
        <time>2019-07-16T08:49:47Z</time>
      </trkpt>
      <trkpt lat="47.59784" lon="-2.8126">
        <ele>7.83</ele>
        <time>2019-07-16T08:50:02Z</time>
      </trkpt>
      <trkpt lat="47.59774" lon="-2.81256">
        <ele>7.83</ele>
        <time>2019-07-16T08:50:17Z</time>
      </trkpt>
      <trkpt lat="47.59775" lon="-2.81255">
        <ele>8.31</ele>
        <time>2019-07-16T08:50:32Z</time>
      </trkpt>
      <trkpt lat="47.59775" lon="-2.81257">
        <ele>7.83</ele>
        <time>2019-07-16T08:50:47Z</time>
      </trkpt>
      <trkpt lat="47.59771" lon="-2.81259">
        <ele>7.83</ele>
        <time>2019-07-16T08:51:02Z</time>
      </trkpt>
      <trkpt lat="47.59766" lon="-2.81254">
        <ele>7.83</ele>
        <time>2019-07-16T08:51:17Z</time>
      </trkpt>
      <trkpt lat="47.59754" lon="-2.81249">
        <ele>8.31</ele>
        <time>2019-07-16T08:51:32Z</time>
      </trkpt>
      <trkpt lat="47.5974" lon="-2.81241">
        <ele>7.83</ele>
        <time>2019-07-16T08:51:47Z</time>
      </trkpt>
      <trkpt lat="47.59729" lon="-2.81234">
        <ele>8.31</ele>
        <time>2019-07-16T08:52:02Z</time>
      </trkpt>
      <trkpt lat="47.59715" lon="-2.81224">
        <ele>7.83</ele>
        <time>2019-07-16T08:52:17Z</time>
      </trkpt>
      <trkpt lat="47.597" lon="-2.81213">
        <ele>8.31</ele>
        <time>2019-07-16T08:52:32Z</time>
      </trkpt>
      <trkpt lat="47.59683" lon="-2.81198">
        <ele>7.83</ele>
        <time>2019-07-16T08:52:47Z</time>
      </trkpt>
      <trkpt lat="47.59665" lon="-2.81182">
        <ele>7.83</ele>
        <time>2019-07-16T08:53:02Z</time>
      </trkpt>
      <trkpt lat="47.59648" lon="-2.81167">
        <ele>7.83</ele>
        <time>2019-07-16T08:53:17Z</time>
      </trkpt>
      <trkpt lat="47.59631" lon="-2.81152">
        <ele>7.83</ele>
        <time>2019-07-16T08:53:32Z</time>
      </trkpt>
      <trkpt lat="47.59621" lon="-2.81144">
        <ele>8.31</ele>
        <time>2019-07-16T08:53:47Z</time>
      </trkpt>
      <trkpt lat="47.59609" lon="-2.8113">
        <ele>8.31</ele>
        <time>2019-07-16T08:54:02Z</time>
      </trkpt>
      <trkpt lat="47.59591" lon="-2.81117">
        <ele>8.31</ele>
        <time>2019-07-16T08:54:17Z</time>
      </trkpt>
      <trkpt lat="47.59575" lon="-2.81106">
        <ele>8.31</ele>
        <time>2019-07-16T08:54:32Z</time>
      </trkpt>
      <trkpt lat="47.59556" lon="-2.81097">
        <ele>7.83</ele>
        <time>2019-07-16T08:54:47Z</time>
      </trkpt>
      <trkpt lat="47.59537" lon="-2.81087">
        <ele>8.79</ele>
        <time>2019-07-16T08:55:02Z</time>
      </trkpt>
      <trkpt lat="47.59521" lon="-2.81077">
        <ele>8.31</ele>
        <time>2019-07-16T08:55:17Z</time>
      </trkpt>
      <trkpt lat="47.59506" lon="-2.81064">
        <ele>8.31</ele>
        <time>2019-07-16T08:55:32Z</time>
      </trkpt>
      <trkpt lat="47.59493" lon="-2.81045">
        <ele>8.31</ele>
        <time>2019-07-16T08:55:47Z</time>
      </trkpt>
      <trkpt lat="47.59481" lon="-2.81023">
        <ele>7.83</ele>
        <time>2019-07-16T08:56:02Z</time>
      </trkpt>
      <trkpt lat="47.59475" lon="-2.80995">
        <ele>7.83</ele>
        <time>2019-07-16T08:56:17Z</time>
      </trkpt>
      <trkpt lat="47.59471" lon="-2.80967">
        <ele>7.83</ele>
        <time>2019-07-16T08:56:32Z</time>
      </trkpt>
      <trkpt lat="47.59458" lon="-2.80947">
        <ele>6.87</ele>
        <time>2019-07-16T08:56:47Z</time>
      </trkpt>
      <trkpt lat="47.59449" lon="-2.8093">
        <ele>7.83</ele>
        <time>2019-07-16T08:57:02Z</time>
      </trkpt>
      <trkpt lat="47.59435" lon="-2.80912">
        <ele>7.83</ele>
        <time>2019-07-16T08:57:17Z</time>
      </trkpt>
      <trkpt lat="47.59419" lon="-2.80898">
        <ele>7.83</ele>
        <time>2019-07-16T08:57:32Z</time>
      </trkpt>
      <trkpt lat="47.59403" lon="-2.80887">
        <ele>7.83</ele>
        <time>2019-07-16T08:57:47Z</time>
      </trkpt>
      <trkpt lat="47.59385" lon="-2.80881">
        <ele>8.31</ele>
        <time>2019-07-16T08:58:02Z</time>
      </trkpt>
      <trkpt lat="47.59383" lon="-2.80874">
        <ele>7.83</ele>
        <time>2019-07-16T08:58:17Z</time>
      </trkpt>
      <trkpt lat="47.59373" lon="-2.80873">
        <ele>7.83</ele>
        <time>2019-07-16T08:58:32Z</time>
      </trkpt>
      <trkpt lat="47.59355" lon="-2.80873">
        <ele>7.83</ele>
        <time>2019-07-16T08:58:47Z</time>
      </trkpt>
      <trkpt lat="47.59337" lon="-2.80874">
        <ele>8.31</ele>
        <time>2019-07-16T08:59:02Z</time>
      </trkpt>
      <trkpt lat="47.59318" lon="-2.80873">
        <ele>7.83</ele>
        <time>2019-07-16T08:59:17Z</time>
      </trkpt>
      <trkpt lat="47.59298" lon="-2.80874">
        <ele>8.31</ele>
        <time>2019-07-16T08:59:32Z</time>
      </trkpt>
      <trkpt lat="47.59279" lon="-2.80875">
        <ele>8.31</ele>
        <time>2019-07-16T08:59:47Z</time>
      </trkpt>
      <trkpt lat="47.59262" lon="-2.80884">
        <ele>7.83</ele>
        <time>2019-07-16T09:00:02Z</time>
      </trkpt>
      <trkpt lat="47.59244" lon="-2.80892">
        <ele>8.31</ele>
        <time>2019-07-16T09:00:17Z</time>
      </trkpt>
      <trkpt lat="47.59233" lon="-2.80916">
        <ele>8.31</ele>
        <time>2019-07-16T09:00:32Z</time>
      </trkpt>
      <trkpt lat="47.5923" lon="-2.80935">
        <ele>8.31</ele>
        <time>2019-07-16T09:00:47Z</time>
      </trkpt>
      <trkpt lat="47.59222" lon="-2.80958">
        <ele>8.31</ele>
        <time>2019-07-16T09:01:02Z</time>
      </trkpt>
      <trkpt lat="47.5921" lon="-2.8098">
        <ele>8.31</ele>
        <time>2019-07-16T09:01:17Z</time>
      </trkpt>
      <trkpt lat="47.59202" lon="-2.81005">
        <ele>8.79</ele>
        <time>2019-07-16T09:01:32Z</time>
      </trkpt>
      <trkpt lat="47.59191" lon="-2.81028">
        <ele>9.27</ele>
        <time>2019-07-16T09:01:47Z</time>
      </trkpt>
      <trkpt lat="47.59183" lon="-2.81051">
        <ele>9.75</ele>
        <time>2019-07-16T09:02:02Z</time>
      </trkpt>
      <trkpt lat="47.59179" lon="-2.81077">
        <ele>9.75</ele>
        <time>2019-07-16T09:02:17Z</time>
      </trkpt>
      <trkpt lat="47.59178" lon="-2.81078">
        <ele>9.75</ele>
        <time>2019-07-16T09:02:32Z</time>
      </trkpt>
      <trkpt lat="47.59178" lon="-2.81079">
        <ele>9.75</ele>
        <time>2019-07-16T09:02:47Z</time>
      </trkpt>
      <trkpt lat="47.59178" lon="-2.81081">
        <ele>9.75</ele>
        <time>2019-07-16T09:03:02Z</time>
      </trkpt>
      <trkpt lat="47.59176" lon="-2.81082">
        <ele>9.75</ele>
        <time>2019-07-16T09:03:17Z</time>
      </trkpt>
      <trkpt lat="47.59176" lon="-2.81083">
        <ele>8.31</ele>
        <time>2019-07-16T09:03:32Z</time>
      </trkpt>
      <trkpt lat="47.59177" lon="-2.81084">
        <ele>8.79</ele>
        <time>2019-07-16T09:03:47Z</time>
      </trkpt>
      <trkpt lat="47.59179" lon="-2.81082">
        <ele>9.75</ele>
        <time>2019-07-16T09:04:02Z</time>
      </trkpt>
      <trkpt lat="47.59181" lon="-2.81081">
        <ele>9.75</ele>
        <time>2019-07-16T09:04:17Z</time>
      </trkpt>
      <trkpt lat="47.59181" lon="-2.81083">
        <ele>9.75</ele>
        <time>2019-07-16T09:04:32Z</time>
      </trkpt>
      <trkpt lat="47.5918" lon="-2.81086">
        <ele>9.75</ele>
        <time>2019-07-16T09:04:47Z</time>
      </trkpt>
      <trkpt lat="47.59181" lon="-2.81084">
        <ele>9.75</ele>
        <time>2019-07-16T09:05:02Z</time>
      </trkpt>
      <trkpt lat="47.59182" lon="-2.81081">
        <ele>10.23</ele>
        <time>2019-07-16T09:05:17Z</time>
      </trkpt>
      <trkpt lat="47.59182" lon="-2.81083">
        <ele>10.23</ele>
        <time>2019-07-16T09:05:32Z</time>
      </trkpt>
      <trkpt lat="47.59181" lon="-2.81084">
        <ele>10.23</ele>
        <time>2019-07-16T09:05:47Z</time>
      </trkpt>
      <trkpt lat="47.59181" lon="-2.81085">
        <ele>10.23</ele>
        <time>2019-07-16T09:06:02Z</time>
      </trkpt>
      <trkpt lat="47.59181" lon="-2.81085">
        <ele>10.71</ele>
        <time>2019-07-16T09:06:17Z</time>
      </trkpt>
      <trkpt lat="47.5918" lon="-2.81086">
        <ele>10.23</ele>
        <time>2019-07-16T09:06:32Z</time>
      </trkpt>
      <trkpt lat="47.59176" lon="-2.81086">
        <ele>10.23</ele>
        <time>2019-07-16T09:06:47Z</time>
      </trkpt>
      <trkpt lat="47.59167" lon="-2.81101">
        <ele>10.23</ele>
        <time>2019-07-16T09:07:02Z</time>
      </trkpt>
      <trkpt lat="47.59155" lon="-2.81123">
        <ele>10.71</ele>
        <time>2019-07-16T09:07:17Z</time>
      </trkpt>
      <trkpt lat="47.59146" lon="-2.81147">
        <ele>10.23</ele>
        <time>2019-07-16T09:07:32Z</time>
      </trkpt>
      <trkpt lat="47.59143" lon="-2.81176">
        <ele>9.75</ele>
        <time>2019-07-16T09:07:47Z</time>
      </trkpt>
      <trkpt lat="47.59137" lon="-2.81205">
        <ele>9.75</ele>
        <time>2019-07-16T09:08:02Z</time>
      </trkpt>
      <trkpt lat="47.59126" lon="-2.81229">
        <ele>9.75</ele>
        <time>2019-07-16T09:08:17Z</time>
      </trkpt>
      <trkpt lat="47.59114" lon="-2.81232">
        <ele>9.27</ele>
        <time>2019-07-16T09:08:32Z</time>
      </trkpt>
      <trkpt lat="47.59103" lon="-2.81224">
        <ele>10.23</ele>
        <time>2019-07-16T09:08:47Z</time>
      </trkpt>
      <trkpt lat="47.59098" lon="-2.81222">
        <ele>10.23</ele>
        <time>2019-07-16T09:09:02Z</time>
      </trkpt>
      <trkpt lat="47.59081" lon="-2.81213">
        <ele>10.23</ele>
        <time>2019-07-16T09:09:17Z</time>
      </trkpt>
      <trkpt lat="47.59064" lon="-2.8122">
        <ele>9.75</ele>
        <time>2019-07-16T09:09:32Z</time>
      </trkpt>
      <trkpt lat="47.59063" lon="-2.81222">
        <ele>9.75</ele>
        <time>2019-07-16T09:09:47Z</time>
      </trkpt>
      <trkpt lat="47.59045" lon="-2.8121">
        <ele>8.31</ele>
        <time>2019-07-16T09:10:02Z</time>
      </trkpt>
      <trkpt lat="47.59028" lon="-2.81198">
        <ele>8.31</ele>
        <time>2019-07-16T09:10:17Z</time>
      </trkpt>
      <trkpt lat="47.59013" lon="-2.81184">
        <ele>8.31</ele>
        <time>2019-07-16T09:10:32Z</time>
      </trkpt>
      <trkpt lat="47.59013" lon="-2.8118">
        <ele>8.31</ele>
        <time>2019-07-16T09:10:47Z</time>
      </trkpt>
      <trkpt lat="47.59004" lon="-2.81159">
        <ele>8.31</ele>
        <time>2019-07-16T09:11:02Z</time>
      </trkpt>
      <trkpt lat="47.58991" lon="-2.81151">
        <ele>8.79</ele>
        <time>2019-07-16T09:11:17Z</time>
      </trkpt>
      <trkpt lat="47.58978" lon="-2.81148">
        <ele>9.27</ele>
        <time>2019-07-16T09:11:32Z</time>
      </trkpt>
      <trkpt lat="47.58963" lon="-2.8115">
        <ele>8.79</ele>
        <time>2019-07-16T09:11:47Z</time>
      </trkpt>
      <trkpt lat="47.58942" lon="-2.81139">
        <ele>9.27</ele>
        <time>2019-07-16T09:12:02Z</time>
      </trkpt>
      <trkpt lat="47.5893" lon="-2.81142">
        <ele>8.79</ele>
        <time>2019-07-16T09:12:17Z</time>
      </trkpt>
      <trkpt lat="47.58917" lon="-2.81136">
        <ele>8.31</ele>
        <time>2019-07-16T09:12:32Z</time>
      </trkpt>
      <trkpt lat="47.58914" lon="-2.81133">
        <ele>9.75</ele>
        <time>2019-07-16T09:12:47Z</time>
      </trkpt>
      <trkpt lat="47.589" lon="-2.81125">
        <ele>10.23</ele>
        <time>2019-07-16T09:13:02Z</time>
      </trkpt>
      <trkpt lat="47.58882" lon="-2.81118">
        <ele>10.71</ele>
        <time>2019-07-16T09:13:17Z</time>
      </trkpt>
      <trkpt lat="47.58863" lon="-2.81111">
        <ele>10.23</ele>
        <time>2019-07-16T09:13:32Z</time>
      </trkpt>
      <trkpt lat="47.58851" lon="-2.81094">
        <ele>10.71</ele>
        <time>2019-07-16T09:13:47Z</time>
      </trkpt>
      <trkpt lat="47.58847" lon="-2.81069">
        <ele>10.71</ele>
        <time>2019-07-16T09:14:02Z</time>
      </trkpt>
      <trkpt lat="47.58845" lon="-2.81047">
        <ele>9.27</ele>
        <time>2019-07-16T09:14:17Z</time>
      </trkpt>
      <trkpt lat="47.58845" lon="-2.81017">
        <ele>9.27</ele>
        <time>2019-07-16T09:14:32Z</time>
      </trkpt>
      <trkpt lat="47.58849" lon="-2.8099">
        <ele>9.27</ele>
        <time>2019-07-16T09:14:47Z</time>
      </trkpt>
      <trkpt lat="47.58841" lon="-2.80971">
        <ele>8.79</ele>
        <time>2019-07-16T09:15:02Z</time>
      </trkpt>
      <trkpt lat="47.58826" lon="-2.80948">
        <ele>8.79</ele>
        <time>2019-07-16T09:15:17Z</time>
      </trkpt>
      <trkpt lat="47.5881" lon="-2.80927">
        <ele>7.83</ele>
        <time>2019-07-16T09:15:32Z</time>
      </trkpt>
      <trkpt lat="47.58804" lon="-2.8092">
        <ele>8.31</ele>
        <time>2019-07-16T09:15:47Z</time>
      </trkpt>
      <trkpt lat="47.58798" lon="-2.80895">
        <ele>7.35</ele>
        <time>2019-07-16T09:16:02Z</time>
      </trkpt>
      <trkpt lat="47.58794" lon="-2.80872">
        <ele>7.83</ele>
        <time>2019-07-16T09:16:17Z</time>
      </trkpt>
      <trkpt lat="47.58795" lon="-2.80843">
        <ele>7.83</ele>
        <time>2019-07-16T09:16:32Z</time>
      </trkpt>
      <trkpt lat="47.5879" lon="-2.80813">
        <ele>8.31</ele>
        <time>2019-07-16T09:16:47Z</time>
      </trkpt>
      <trkpt lat="47.58789" lon="-2.80784">
        <ele>7.83</ele>
        <time>2019-07-16T09:17:02Z</time>
      </trkpt>
      <trkpt lat="47.58778" lon="-2.80782">
        <ele>7.83</ele>
        <time>2019-07-16T09:17:17Z</time>
      </trkpt>
      <trkpt lat="47.58768" lon="-2.80783">
        <ele>7.83</ele>
        <time>2019-07-16T09:17:32Z</time>
      </trkpt>
      <trkpt lat="47.5875" lon="-2.80793">
        <ele>7.83</ele>
        <time>2019-07-16T09:17:47Z</time>
      </trkpt>
      <trkpt lat="47.58738" lon="-2.80794">
        <ele>7.83</ele>
        <time>2019-07-16T09:18:02Z</time>
      </trkpt>
      <trkpt lat="47.58727" lon="-2.80799">
        <ele>7.83</ele>
        <time>2019-07-16T09:18:17Z</time>
      </trkpt>
      <trkpt lat="47.58707" lon="-2.80807">
        <ele>7.83</ele>
        <time>2019-07-16T09:18:32Z</time>
      </trkpt>
      <trkpt lat="47.58695" lon="-2.80811">
        <ele>7.83</ele>
        <time>2019-07-16T09:18:47Z</time>
      </trkpt>
      <trkpt lat="47.58674" lon="-2.80815">
        <ele>7.83</ele>
        <time>2019-07-16T09:19:02Z</time>
      </trkpt>
      <trkpt lat="47.58656" lon="-2.80819">
        <ele>7.35</ele>
        <time>2019-07-16T09:19:17Z</time>
      </trkpt>
      <trkpt lat="47.58638" lon="-2.80828">
        <ele>7.83</ele>
        <time>2019-07-16T09:19:32Z</time>
      </trkpt>
      <trkpt lat="47.58619" lon="-2.80837">
        <ele>8.31</ele>
        <time>2019-07-16T09:19:47Z</time>
      </trkpt>
      <trkpt lat="47.58606" lon="-2.80849">
        <ele>7.83</ele>
        <time>2019-07-16T09:20:02Z</time>
      </trkpt>
      <trkpt lat="47.58601" lon="-2.80859">
        <ele>7.83</ele>
        <time>2019-07-16T09:20:17Z</time>
      </trkpt>
      <trkpt lat="47.586" lon="-2.80857">
        <ele>8.31</ele>
        <time>2019-07-16T09:20:32Z</time>
      </trkpt>
      <trkpt lat="47.58599" lon="-2.80856">
        <ele>8.31</ele>
        <time>2019-07-16T09:20:47Z</time>
      </trkpt>
      <trkpt lat="47.58585" lon="-2.8087">
        <ele>8.79</ele>
        <time>2019-07-16T09:21:02Z</time>
      </trkpt>
      <trkpt lat="47.58568" lon="-2.80884">
        <ele>8.31</ele>
        <time>2019-07-16T09:21:17Z</time>
      </trkpt>
      <trkpt lat="47.5855" lon="-2.80894">
        <ele>9.75</ele>
        <time>2019-07-16T09:21:32Z</time>
      </trkpt>
      <trkpt lat="47.58539" lon="-2.80912">
        <ele>10.71</ele>
        <time>2019-07-16T09:21:47Z</time>
      </trkpt>
      <trkpt lat="47.58539" lon="-2.8094">
        <ele>11.19</ele>
        <time>2019-07-16T09:22:02Z</time>
      </trkpt>
      <trkpt lat="47.58531" lon="-2.80964">
        <ele>11.19</ele>
        <time>2019-07-16T09:22:17Z</time>
      </trkpt>
      <trkpt lat="47.5852" lon="-2.80981">
        <ele>11.67</ele>
        <time>2019-07-16T09:22:32Z</time>
      </trkpt>
      <trkpt lat="47.58507" lon="-2.80996">
        <ele>10.71</ele>
        <time>2019-07-16T09:22:47Z</time>
      </trkpt>
      <trkpt lat="47.58491" lon="-2.8101">
        <ele>11.19</ele>
        <time>2019-07-16T09:23:02Z</time>
      </trkpt>
      <trkpt lat="47.58476" lon="-2.81035">
        <ele>11.19</ele>
        <time>2019-07-16T09:23:17Z</time>
      </trkpt>
      <trkpt lat="47.58465" lon="-2.81054">
        <ele>11.67</ele>
        <time>2019-07-16T09:23:32Z</time>
      </trkpt>
      <trkpt lat="47.58453" lon="-2.81075">
        <ele>10.71</ele>
        <time>2019-07-16T09:23:47Z</time>
      </trkpt>
      <trkpt lat="47.58441" lon="-2.81096">
        <ele>10.23</ele>
        <time>2019-07-16T09:24:02Z</time>
      </trkpt>
      <trkpt lat="47.58431" lon="-2.81119">
        <ele>9.27</ele>
        <time>2019-07-16T09:24:17Z</time>
      </trkpt>
      <trkpt lat="47.58419" lon="-2.81142">
        <ele>8.79</ele>
        <time>2019-07-16T09:24:32Z</time>
      </trkpt>
      <trkpt lat="47.58405" lon="-2.81168">
        <ele>8.79</ele>
        <time>2019-07-16T09:24:47Z</time>
      </trkpt>
      <trkpt lat="47.584" lon="-2.81178">
        <ele>7.83</ele>
        <time>2019-07-16T09:25:02Z</time>
      </trkpt>
      <trkpt lat="47.58399" lon="-2.81178">
        <ele>8.31</ele>
        <time>2019-07-16T09:25:17Z</time>
      </trkpt>
      <trkpt lat="47.58395" lon="-2.81192">
        <ele>8.31</ele>
        <time>2019-07-16T09:25:32Z</time>
      </trkpt>
      <trkpt lat="47.58389" lon="-2.8122">
        <ele>6.87</ele>
        <time>2019-07-16T09:25:47Z</time>
      </trkpt>
      <trkpt lat="47.58384" lon="-2.81248">
        <ele>6.87</ele>
        <time>2019-07-16T09:26:02Z</time>
      </trkpt>
      <trkpt lat="47.58381" lon="-2.81276">
        <ele>6.87</ele>
        <time>2019-07-16T09:26:17Z</time>
      </trkpt>
      <trkpt lat="47.58385" lon="-2.813">
        <ele>6.39</ele>
        <time>2019-07-16T09:26:32Z</time>
      </trkpt>
      <trkpt lat="47.58391" lon="-2.81322">
        <ele>6.87</ele>
        <time>2019-07-16T09:26:47Z</time>
      </trkpt>
      <trkpt lat="47.58397" lon="-2.81334">
        <ele>6.87</ele>
        <time>2019-07-16T09:27:02Z</time>
      </trkpt>
      <trkpt lat="47.58407" lon="-2.81355">
        <ele>6.87</ele>
        <time>2019-07-16T09:27:17Z</time>
      </trkpt>
      <trkpt lat="47.58422" lon="-2.81375">
        <ele>6.39</ele>
        <time>2019-07-16T09:27:32Z</time>
      </trkpt>
      <trkpt lat="47.58434" lon="-2.81392">
        <ele>6.87</ele>
        <time>2019-07-16T09:27:47Z</time>
      </trkpt>
      <trkpt lat="47.58447" lon="-2.81411">
        <ele>7.35</ele>
        <time>2019-07-16T09:28:02Z</time>
      </trkpt>
      <trkpt lat="47.5846" lon="-2.81431">
        <ele>6.87</ele>
        <time>2019-07-16T09:28:17Z</time>
      </trkpt>
      <trkpt lat="47.58474" lon="-2.81452">
        <ele>6.87</ele>
        <time>2019-07-16T09:28:32Z</time>
      </trkpt>
      <trkpt lat="47.58487" lon="-2.81472">
        <ele>6.87</ele>
        <time>2019-07-16T09:28:47Z</time>
      </trkpt>
      <trkpt lat="47.58496" lon="-2.81492">
        <ele>7.35</ele>
        <time>2019-07-16T09:29:02Z</time>
      </trkpt>
      <trkpt lat="47.58507" lon="-2.81513">
        <ele>7.83</ele>
        <time>2019-07-16T09:29:17Z</time>
      </trkpt>
      <trkpt lat="47.5852" lon="-2.81532">
        <ele>7.83</ele>
        <time>2019-07-16T09:29:32Z</time>
      </trkpt>
      <trkpt lat="47.58526" lon="-2.81555">
        <ele>8.31</ele>
        <time>2019-07-16T09:29:47Z</time>
      </trkpt>
      <trkpt lat="47.58522" lon="-2.8157">
        <ele>8.31</ele>
        <time>2019-07-16T09:30:02Z</time>
      </trkpt>
      <trkpt lat="47.58522" lon="-2.81577">
        <ele>8.31</ele>
        <time>2019-07-16T09:30:17Z</time>
      </trkpt>
      <trkpt lat="47.58518" lon="-2.81599">
        <ele>8.79</ele>
        <time>2019-07-16T09:30:32Z</time>
      </trkpt>
      <trkpt lat="47.58516" lon="-2.81623">
        <ele>8.31</ele>
        <time>2019-07-16T09:30:47Z</time>
      </trkpt>
      <trkpt lat="47.58521" lon="-2.81647">
        <ele>8.31</ele>
        <time>2019-07-16T09:31:02Z</time>
      </trkpt>
      <trkpt lat="47.58525" lon="-2.8167">
        <ele>7.35</ele>
        <time>2019-07-16T09:31:17Z</time>
      </trkpt>
      <trkpt lat="47.58526" lon="-2.8167">
        <ele>8.31</ele>
        <time>2019-07-16T09:31:32Z</time>
      </trkpt>
      <trkpt lat="47.58527" lon="-2.81669">
        <ele>7.35</ele>
        <time>2019-07-16T09:31:47Z</time>
      </trkpt>
      <trkpt lat="47.58525" lon="-2.81669">
        <ele>7.83</ele>
        <time>2019-07-16T09:32:02Z</time>
      </trkpt>
      <trkpt lat="47.58525" lon="-2.81655">
        <ele>7.83</ele>
        <time>2019-07-16T09:32:17Z</time>
      </trkpt>
      <trkpt lat="47.58521" lon="-2.81634">
        <ele>8.79</ele>
        <time>2019-07-16T09:32:32Z</time>
      </trkpt>
      <trkpt lat="47.5851" lon="-2.81618">
        <ele>8.79</ele>
        <time>2019-07-16T09:32:47Z</time>
      </trkpt>
      <trkpt lat="47.5851" lon="-2.81619">
        <ele>8.79</ele>
        <time>2019-07-16T09:33:02Z</time>
      </trkpt>
      <trkpt lat="47.5851" lon="-2.81621">
        <ele>8.79</ele>
        <time>2019-07-16T09:33:17Z</time>
      </trkpt>
      <trkpt lat="47.5851" lon="-2.81619">
        <ele>8.79</ele>
        <time>2019-07-16T09:33:32Z</time>
      </trkpt>
      <trkpt lat="47.58509" lon="-2.81624">
        <ele>8.79</ele>
        <time>2019-07-16T09:33:47Z</time>
      </trkpt>
      <trkpt lat="47.58512" lon="-2.81615">
        <ele>8.31</ele>
        <time>2019-07-16T09:34:02Z</time>
      </trkpt>
      <trkpt lat="47.58512" lon="-2.81617">
        <ele>8.31</ele>
        <time>2019-07-16T09:34:17Z</time>
      </trkpt>
      <trkpt lat="47.58513" lon="-2.81618">
        <ele>8.31</ele>
        <time>2019-07-16T09:34:32Z</time>
      </trkpt>
      <trkpt lat="47.58516" lon="-2.81616">
        <ele>7.35</ele>
        <time>2019-07-16T09:34:47Z</time>
      </trkpt>
      <trkpt lat="47.58515" lon="-2.81616">
        <ele>8.79</ele>
        <time>2019-07-16T09:35:02Z</time>
      </trkpt>
      <trkpt lat="47.58516" lon="-2.81607">
        <ele>8.31</ele>
        <time>2019-07-16T09:35:17Z</time>
      </trkpt>
      <trkpt lat="47.58508" lon="-2.81585">
        <ele>7.83</ele>
        <time>2019-07-16T09:35:32Z</time>
      </trkpt>
      <trkpt lat="47.58502" lon="-2.81561">
        <ele>7.83</ele>
        <time>2019-07-16T09:35:47Z</time>
      </trkpt>
      <trkpt lat="47.58498" lon="-2.8155">
        <ele>7.35</ele>
        <time>2019-07-16T09:36:02Z</time>
      </trkpt>
      <trkpt lat="47.58494" lon="-2.81536">
        <ele>6.87</ele>
        <time>2019-07-16T09:36:17Z</time>
      </trkpt>
      <trkpt lat="47.58491" lon="-2.81521">
        <ele>6.87</ele>
        <time>2019-07-16T09:36:32Z</time>
      </trkpt>
      <trkpt lat="47.58486" lon="-2.81495">
        <ele>6.39</ele>
        <time>2019-07-16T09:36:47Z</time>
      </trkpt>
      <trkpt lat="47.58479" lon="-2.8147">
        <ele>5.91</ele>
        <time>2019-07-16T09:37:02Z</time>
      </trkpt>
      <trkpt lat="47.5847" lon="-2.81446">
        <ele>5.42</ele>
        <time>2019-07-16T09:37:17Z</time>
      </trkpt>
      <trkpt lat="47.58457" lon="-2.81426">
        <ele>5.91</ele>
        <time>2019-07-16T09:37:32Z</time>
      </trkpt>
      <trkpt lat="47.58445" lon="-2.81407">
        <ele>5.91</ele>
        <time>2019-07-16T09:37:47Z</time>
      </trkpt>
      <trkpt lat="47.58431" lon="-2.81391">
        <ele>5.91</ele>
        <time>2019-07-16T09:38:02Z</time>
      </trkpt>
      <trkpt lat="47.5842" lon="-2.81371">
        <ele>5.42</ele>
        <time>2019-07-16T09:38:17Z</time>
      </trkpt>
      <trkpt lat="47.58406" lon="-2.81352">
        <ele>5.91</ele>
        <time>2019-07-16T09:38:32Z</time>
      </trkpt>
      <trkpt lat="47.58392" lon="-2.81334">
        <ele>6.39</ele>
        <time>2019-07-16T09:38:47Z</time>
      </trkpt>
      <trkpt lat="47.58377" lon="-2.81319">
        <ele>5.42</ele>
        <time>2019-07-16T09:39:02Z</time>
      </trkpt>
      <trkpt lat="47.58364" lon="-2.81303">
        <ele>5.91</ele>
        <time>2019-07-16T09:39:17Z</time>
      </trkpt>
      <trkpt lat="47.58349" lon="-2.81287">
        <ele>5.42</ele>
        <time>2019-07-16T09:39:32Z</time>
      </trkpt>
      <trkpt lat="47.58339" lon="-2.81272">
        <ele>5.42</ele>
        <time>2019-07-16T09:39:47Z</time>
      </trkpt>
      <trkpt lat="47.58333" lon="-2.81256">
        <ele>6.39</ele>
        <time>2019-07-16T09:40:02Z</time>
      </trkpt>
      <trkpt lat="47.58326" lon="-2.81245">
        <ele>5.91</ele>
        <time>2019-07-16T09:40:17Z</time>
      </trkpt>
      <trkpt lat="47.58323" lon="-2.81241">
        <ele>6.39</ele>
        <time>2019-07-16T09:40:32Z</time>
      </trkpt>
      <trkpt lat="47.58327" lon="-2.8124">
        <ele>5.91</ele>
        <time>2019-07-16T09:40:47Z</time>
      </trkpt>
      <trkpt lat="47.58319" lon="-2.81235">
        <ele>5.91</ele>
        <time>2019-07-16T09:41:02Z</time>
      </trkpt>
      <trkpt lat="47.58313" lon="-2.8124">
        <ele>4.94</ele>
        <time>2019-07-16T09:41:17Z</time>
      </trkpt>
      <trkpt lat="47.58316" lon="-2.81238">
        <ele>5.42</ele>
        <time>2019-07-16T09:41:32Z</time>
      </trkpt>
      <trkpt lat="47.58319" lon="-2.81237">
        <ele>5.42</ele>
        <time>2019-07-16T09:41:47Z</time>
      </trkpt>
      <trkpt lat="47.58323" lon="-2.8124">
        <ele>5.42</ele>
        <time>2019-07-16T09:42:02Z</time>
      </trkpt>
      <trkpt lat="47.5832" lon="-2.81244">
        <ele>5.42</ele>
        <time>2019-07-16T09:42:17Z</time>
      </trkpt>
      <trkpt lat="47.58317" lon="-2.8125">
        <ele>5.42</ele>
        <time>2019-07-16T09:42:32Z</time>
      </trkpt>
      <trkpt lat="47.58316" lon="-2.81254">
        <ele>5.42</ele>
        <time>2019-07-16T09:42:47Z</time>
      </trkpt>
      <trkpt lat="47.58317" lon="-2.81255">
        <ele>4.94</ele>
        <time>2019-07-16T09:43:02Z</time>
      </trkpt>
      <trkpt lat="47.58321" lon="-2.81255">
        <ele>4.94</ele>
        <time>2019-07-16T09:43:17Z</time>
      </trkpt>
      <trkpt lat="47.58324" lon="-2.81246">
        <ele>5.42</ele>
        <time>2019-07-16T09:43:32Z</time>
      </trkpt>
      <trkpt lat="47.58327" lon="-2.81239">
        <ele>5.91</ele>
        <time>2019-07-16T09:43:47Z</time>
      </trkpt>
      <trkpt lat="47.58313" lon="-2.81244">
        <ele>5.42</ele>
        <time>2019-07-16T09:44:02Z</time>
      </trkpt>
      <trkpt lat="47.58294" lon="-2.81239">
        <ele>5.91</ele>
        <time>2019-07-16T09:44:17Z</time>
      </trkpt>
      <trkpt lat="47.58278" lon="-2.81224">
        <ele>6.87</ele>
        <time>2019-07-16T09:44:32Z</time>
      </trkpt>
      <trkpt lat="47.58263" lon="-2.81211">
        <ele>7.83</ele>
        <time>2019-07-16T09:44:47Z</time>
      </trkpt>
      <trkpt lat="47.58247" lon="-2.81199">
        <ele>8.31</ele>
        <time>2019-07-16T09:45:02Z</time>
      </trkpt>
      <trkpt lat="47.58229" lon="-2.81191">
        <ele>8.31</ele>
        <time>2019-07-16T09:45:17Z</time>
      </trkpt>
      <trkpt lat="47.58211" lon="-2.81183">
        <ele>8.79</ele>
        <time>2019-07-16T09:45:32Z</time>
      </trkpt>
      <trkpt lat="47.58194" lon="-2.8117">
        <ele>9.27</ele>
        <time>2019-07-16T09:45:47Z</time>
      </trkpt>
      <trkpt lat="47.58179" lon="-2.81155">
        <ele>9.27</ele>
        <time>2019-07-16T09:46:02Z</time>
      </trkpt>
      <trkpt lat="47.58161" lon="-2.81147">
        <ele>8.79</ele>
        <time>2019-07-16T09:46:17Z</time>
      </trkpt>
      <trkpt lat="47.58142" lon="-2.81138">
        <ele>8.79</ele>
        <time>2019-07-16T09:46:32Z</time>
      </trkpt>
      <trkpt lat="47.58124" lon="-2.81129">
        <ele>7.83</ele>
        <time>2019-07-16T09:46:47Z</time>
      </trkpt>
      <trkpt lat="47.58105" lon="-2.81125">
        <ele>7.83</ele>
        <time>2019-07-16T09:47:02Z</time>
      </trkpt>
      <trkpt lat="47.58086" lon="-2.81126">
        <ele>7.35</ele>
        <time>2019-07-16T09:47:17Z</time>
      </trkpt>
      <trkpt lat="47.58068" lon="-2.81126">
        <ele>7.83</ele>
        <time>2019-07-16T09:47:32Z</time>
      </trkpt>
      <trkpt lat="47.5806" lon="-2.81135">
        <ele>7.83</ele>
        <time>2019-07-16T09:47:47Z</time>
      </trkpt>
      <trkpt lat="47.58053" lon="-2.81162">
        <ele>8.79</ele>
        <time>2019-07-16T09:48:02Z</time>
      </trkpt>
      <trkpt lat="47.58047" lon="-2.81179">
        <ele>9.27</ele>
        <time>2019-07-16T09:48:17Z</time>
      </trkpt>
      <trkpt lat="47.58046" lon="-2.81178">
        <ele>8.31</ele>
        <time>2019-07-16T09:48:32Z</time>
      </trkpt>
      <trkpt lat="47.58044" lon="-2.8118">
        <ele>9.27</ele>
        <time>2019-07-16T09:48:47Z</time>
      </trkpt>
      <trkpt lat="47.58043" lon="-2.81188">
        <ele>9.75</ele>
        <time>2019-07-16T09:49:02Z</time>
      </trkpt>
      <trkpt lat="47.58045" lon="-2.81194">
        <ele>8.79</ele>
        <time>2019-07-16T09:49:17Z</time>
      </trkpt>
      <trkpt lat="47.58043" lon="-2.81194">
        <ele>8.79</ele>
        <time>2019-07-16T09:49:32Z</time>
      </trkpt>
      <trkpt lat="47.5804" lon="-2.81194">
        <ele>9.27</ele>
        <time>2019-07-16T09:49:47Z</time>
      </trkpt>
      <trkpt lat="47.58044" lon="-2.81181">
        <ele>8.79</ele>
        <time>2019-07-16T09:50:02Z</time>
      </trkpt>
      <trkpt lat="47.58042" lon="-2.81193">
        <ele>9.27</ele>
        <time>2019-07-16T09:50:17Z</time>
      </trkpt>
      <trkpt lat="47.58044" lon="-2.81196">
        <ele>9.75</ele>
        <time>2019-07-16T09:50:32Z</time>
      </trkpt>
      <trkpt lat="47.58041" lon="-2.81197">
        <ele>9.27</ele>
        <time>2019-07-16T09:50:47Z</time>
      </trkpt>
      <trkpt lat="47.5804" lon="-2.81195">
        <ele>9.27</ele>
        <time>2019-07-16T09:51:02Z</time>
      </trkpt>
      <trkpt lat="47.58041" lon="-2.81195">
        <ele>9.27</ele>
        <time>2019-07-16T09:51:17Z</time>
      </trkpt>
      <trkpt lat="47.58034" lon="-2.81196">
        <ele>9.27</ele>
        <time>2019-07-16T09:51:32Z</time>
      </trkpt>
      <trkpt lat="47.58021" lon="-2.8121">
        <ele>8.79</ele>
        <time>2019-07-16T09:51:47Z</time>
      </trkpt>
      <trkpt lat="47.58011" lon="-2.81234">
        <ele>8.79</ele>
        <time>2019-07-16T09:52:02Z</time>
      </trkpt>
      <trkpt lat="47.58004" lon="-2.8126">
        <ele>7.83</ele>
        <time>2019-07-16T09:52:17Z</time>
      </trkpt>
      <trkpt lat="47.57993" lon="-2.81274">
        <ele>8.31</ele>
        <time>2019-07-16T09:52:32Z</time>
      </trkpt>
      <trkpt lat="47.5798" lon="-2.81275">
        <ele>9.75</ele>
        <time>2019-07-16T09:52:47Z</time>
      </trkpt>
      <trkpt lat="47.57968" lon="-2.81285">
        <ele>9.75</ele>
        <time>2019-07-16T09:53:02Z</time>
      </trkpt>
      <trkpt lat="47.57967" lon="-2.81282">
        <ele>10.23</ele>
        <time>2019-07-16T09:53:17Z</time>
      </trkpt>
      <trkpt lat="47.57961" lon="-2.81298">
        <ele>8.79</ele>
        <time>2019-07-16T09:53:32Z</time>
      </trkpt>
      <trkpt lat="47.57958" lon="-2.81302">
        <ele>9.27</ele>
        <time>2019-07-16T09:53:47Z</time>
      </trkpt>
      <trkpt lat="47.5795" lon="-2.813">
        <ele>9.27</ele>
        <time>2019-07-16T09:54:02Z</time>
      </trkpt>
      <trkpt lat="47.57939" lon="-2.81318">
        <ele>8.31</ele>
        <time>2019-07-16T09:54:17Z</time>
      </trkpt>
      <trkpt lat="47.57939" lon="-2.81327">
        <ele>7.35</ele>
        <time>2019-07-16T09:54:32Z</time>
      </trkpt>
      <trkpt lat="47.57934" lon="-2.81321">
        <ele>8.31</ele>
        <time>2019-07-16T09:54:47Z</time>
      </trkpt>
      <trkpt lat="47.57934" lon="-2.81321">
        <ele>8.31</ele>
        <time>2019-07-16T09:55:02Z</time>
      </trkpt>
      <trkpt lat="47.57933" lon="-2.81319">
        <ele>8.31</ele>
        <time>2019-07-16T09:55:17Z</time>
      </trkpt>
      <trkpt lat="47.57934" lon="-2.81318">
        <ele>8.31</ele>
        <time>2019-07-16T09:55:32Z</time>
      </trkpt>
      <trkpt lat="47.57935" lon="-2.81318">
        <ele>7.83</ele>
        <time>2019-07-16T09:55:47Z</time>
      </trkpt>
      <trkpt lat="47.57936" lon="-2.81321">
        <ele>7.83</ele>
        <time>2019-07-16T09:56:02Z</time>
      </trkpt>
      <trkpt lat="47.57934" lon="-2.81322">
        <ele>7.83</ele>
        <time>2019-07-16T09:56:17Z</time>
      </trkpt>
      <trkpt lat="47.57934" lon="-2.81319">
        <ele>7.83</ele>
        <time>2019-07-16T09:56:32Z</time>
      </trkpt>
      <trkpt lat="47.57934" lon="-2.8132">
        <ele>7.83</ele>
        <time>2019-07-16T09:56:47Z</time>
      </trkpt>
      <trkpt lat="47.57934" lon="-2.81317">
        <ele>8.31</ele>
        <time>2019-07-16T09:57:02Z</time>
      </trkpt>
      <trkpt lat="47.57934" lon="-2.81317">
        <ele>8.79</ele>
        <time>2019-07-16T09:57:17Z</time>
      </trkpt>
      <trkpt lat="47.57934" lon="-2.81319">
        <ele>8.31</ele>
        <time>2019-07-16T09:57:32Z</time>
      </trkpt>
      <trkpt lat="47.57935" lon="-2.81318">
        <ele>8.31</ele>
        <time>2019-07-16T09:57:47Z</time>
      </trkpt>
      <trkpt lat="47.57935" lon="-2.81316">
        <ele>8.79</ele>
        <time>2019-07-16T09:58:02Z</time>
      </trkpt>
      <trkpt lat="47.57933" lon="-2.81317">
        <ele>8.31</ele>
        <time>2019-07-16T09:58:17Z</time>
      </trkpt>
      <trkpt lat="47.57934" lon="-2.81317">
        <ele>8.31</ele>
        <time>2019-07-16T09:58:32Z</time>
      </trkpt>
      <trkpt lat="47.57933" lon="-2.8132">
        <ele>8.79</ele>
        <time>2019-07-16T09:58:47Z</time>
      </trkpt>
      <trkpt lat="47.57935" lon="-2.8131">
        <ele>9.75</ele>
        <time>2019-07-16T09:59:02Z</time>
      </trkpt>
      <trkpt lat="47.57928" lon="-2.81297">
        <ele>10.71</ele>
        <time>2019-07-16T09:59:17Z</time>
      </trkpt>
      <trkpt lat="47.57934" lon="-2.81278">
        <ele>11.67</ele>
        <time>2019-07-16T09:59:32Z</time>
      </trkpt>
      <trkpt lat="47.57935" lon="-2.81263">
        <ele>11.67</ele>
        <time>2019-07-16T09:59:47Z</time>
      </trkpt>
      <trkpt lat="47.57929" lon="-2.81251">
        <ele>11.67</ele>
        <time>2019-07-16T10:00:02Z</time>
      </trkpt>
      <trkpt lat="47.57926" lon="-2.81244">
        <ele>10.71</ele>
        <time>2019-07-16T10:00:17Z</time>
      </trkpt>
      <trkpt lat="47.57926" lon="-2.81243">
        <ele>11.19</ele>
        <time>2019-07-16T10:00:32Z</time>
      </trkpt>
      <trkpt lat="47.5792" lon="-2.81236">
        <ele>9.75</ele>
        <time>2019-07-16T10:00:47Z</time>
      </trkpt>
      <trkpt lat="47.57913" lon="-2.81212">
        <ele>8.31</ele>
        <time>2019-07-16T10:01:02Z</time>
      </trkpt>
      <trkpt lat="47.57903" lon="-2.81195">
        <ele>6.87</ele>
        <time>2019-07-16T10:01:17Z</time>
      </trkpt>
      <trkpt lat="47.57889" lon="-2.81189">
        <ele>6.39</ele>
        <time>2019-07-16T10:01:32Z</time>
      </trkpt>
      <trkpt lat="47.57886" lon="-2.81188">
        <ele>6.39</ele>
        <time>2019-07-16T10:01:47Z</time>
      </trkpt>
      <trkpt lat="47.57896" lon="-2.81178">
        <ele>5.91</ele>
        <time>2019-07-16T10:02:02Z</time>
      </trkpt>
      <trkpt lat="47.57895" lon="-2.81179">
        <ele>5.91</ele>
        <time>2019-07-16T10:02:17Z</time>
      </trkpt>
      <trkpt lat="47.57895" lon="-2.81181">
        <ele>5.91</ele>
        <time>2019-07-16T10:02:32Z</time>
      </trkpt>
      <trkpt lat="47.57895" lon="-2.81183">
        <ele>5.91</ele>
        <time>2019-07-16T10:02:47Z</time>
      </trkpt>
      <trkpt lat="47.57895" lon="-2.81181">
        <ele>5.42</ele>
        <time>2019-07-16T10:03:02Z</time>
      </trkpt>
      <trkpt lat="47.57895" lon="-2.8118">
        <ele>5.42</ele>
        <time>2019-07-16T10:03:17Z</time>
      </trkpt>
      <trkpt lat="47.57895" lon="-2.81179">
        <ele>5.42</ele>
        <time>2019-07-16T10:03:32Z</time>
      </trkpt>
      <trkpt lat="47.57894" lon="-2.81179">
        <ele>5.42</ele>
        <time>2019-07-16T10:03:47Z</time>
      </trkpt>
      <trkpt lat="47.57894" lon="-2.81179">
        <ele>5.91</ele>
        <time>2019-07-16T10:04:02Z</time>
      </trkpt>
      <trkpt lat="47.57893" lon="-2.8118">
        <ele>5.42</ele>
        <time>2019-07-16T10:04:17Z</time>
      </trkpt>
      <trkpt lat="47.57892" lon="-2.81183">
        <ele>5.91</ele>
        <time>2019-07-16T10:04:32Z</time>
      </trkpt>
      <trkpt lat="47.5789" lon="-2.81182">
        <ele>5.91</ele>
        <time>2019-07-16T10:04:47Z</time>
      </trkpt>
      <trkpt lat="47.5789" lon="-2.81181">
        <ele>5.42</ele>
        <time>2019-07-16T10:05:02Z</time>
      </trkpt>
      <trkpt lat="47.5789" lon="-2.81182">
        <ele>5.42</ele>
        <time>2019-07-16T10:05:17Z</time>
      </trkpt>
      <trkpt lat="47.57891" lon="-2.81179">
        <ele>5.91</ele>
        <time>2019-07-16T10:05:32Z</time>
      </trkpt>
      <trkpt lat="47.57891" lon="-2.81179">
        <ele>5.91</ele>
        <time>2019-07-16T10:05:47Z</time>
      </trkpt>
      <trkpt lat="47.57895" lon="-2.81178">
        <ele>6.39</ele>
        <time>2019-07-16T10:06:02Z</time>
      </trkpt>
      <trkpt lat="47.57894" lon="-2.81176">
        <ele>5.91</ele>
        <time>2019-07-16T10:06:17Z</time>
      </trkpt>
      <trkpt lat="47.57896" lon="-2.81174">
        <ele>5.91</ele>
        <time>2019-07-16T10:06:32Z</time>
      </trkpt>
      <trkpt lat="47.57894" lon="-2.81173">
        <ele>5.91</ele>
        <time>2019-07-16T10:06:47Z</time>
      </trkpt>
      <trkpt lat="47.57891" lon="-2.8117">
        <ele>5.91</ele>
        <time>2019-07-16T10:07:02Z</time>
      </trkpt>
      <trkpt lat="47.57893" lon="-2.81169">
        <ele>6.39</ele>
        <time>2019-07-16T10:07:17Z</time>
      </trkpt>
      <trkpt lat="47.57895" lon="-2.81171">
        <ele>5.91</ele>
        <time>2019-07-16T10:07:32Z</time>
      </trkpt>
      <trkpt lat="47.57897" lon="-2.81172">
        <ele>5.91</ele>
        <time>2019-07-16T10:07:47Z</time>
      </trkpt>
      <trkpt lat="47.57897" lon="-2.81168">
        <ele>6.39</ele>
        <time>2019-07-16T10:08:02Z</time>
      </trkpt>
      <trkpt lat="47.57894" lon="-2.81167">
        <ele>5.91</ele>
        <time>2019-07-16T10:08:17Z</time>
      </trkpt>
      <trkpt lat="47.57893" lon="-2.81165">
        <ele>6.39</ele>
        <time>2019-07-16T10:08:32Z</time>
      </trkpt>
      <trkpt lat="47.57893" lon="-2.81169">
        <ele>5.91</ele>
        <time>2019-07-16T10:08:47Z</time>
      </trkpt>
      <trkpt lat="47.57893" lon="-2.81166">
        <ele>6.39</ele>
        <time>2019-07-16T10:09:02Z</time>
      </trkpt>
      <trkpt lat="47.57893" lon="-2.81163">
        <ele>6.39</ele>
        <time>2019-07-16T10:09:17Z</time>
      </trkpt>
      <trkpt lat="47.57897" lon="-2.81164">
        <ele>6.39</ele>
        <time>2019-07-16T10:09:32Z</time>
      </trkpt>
      <trkpt lat="47.57895" lon="-2.81163">
        <ele>6.39</ele>
        <time>2019-07-16T10:09:47Z</time>
      </trkpt>
      <trkpt lat="47.57898" lon="-2.81167">
        <ele>6.87</ele>
        <time>2019-07-16T10:10:02Z</time>
      </trkpt>
      <trkpt lat="47.57898" lon="-2.81165">
        <ele>6.87</ele>
        <time>2019-07-16T10:10:17Z</time>
      </trkpt>
      <trkpt lat="47.57897" lon="-2.81163">
        <ele>6.87</ele>
        <time>2019-07-16T10:10:32Z</time>
      </trkpt>
      <trkpt lat="47.57897" lon="-2.81159">
        <ele>6.87</ele>
        <time>2019-07-16T10:10:47Z</time>
      </trkpt>
      <trkpt lat="47.57898" lon="-2.81156">
        <ele>6.87</ele>
        <time>2019-07-16T10:11:02Z</time>
      </trkpt>
      <trkpt lat="47.57896" lon="-2.8116">
        <ele>6.87</ele>
        <time>2019-07-16T10:11:17Z</time>
      </trkpt>
      <trkpt lat="47.57897" lon="-2.81163">
        <ele>6.87</ele>
        <time>2019-07-16T10:11:32Z</time>
      </trkpt>
      <trkpt lat="47.57899" lon="-2.81167">
        <ele>6.87</ele>
        <time>2019-07-16T10:11:47Z</time>
      </trkpt>
      <trkpt lat="47.57897" lon="-2.81169">
        <ele>6.87</ele>
        <time>2019-07-16T10:12:02Z</time>
      </trkpt>
      <trkpt lat="47.57897" lon="-2.81169">
        <ele>7.35</ele>
        <time>2019-07-16T10:12:17Z</time>
      </trkpt>
      <trkpt lat="47.57894" lon="-2.8117">
        <ele>7.35</ele>
        <time>2019-07-16T10:12:32Z</time>
      </trkpt>
      <trkpt lat="47.57893" lon="-2.8117">
        <ele>7.83</ele>
        <time>2019-07-16T10:12:47Z</time>
      </trkpt>
      <trkpt lat="47.57891" lon="-2.81171">
        <ele>7.35</ele>
        <time>2019-07-16T10:13:02Z</time>
      </trkpt>
      <trkpt lat="47.57888" lon="-2.8117">
        <ele>7.83</ele>
        <time>2019-07-16T10:13:17Z</time>
      </trkpt>
      <trkpt lat="47.57889" lon="-2.81173">
        <ele>7.83</ele>
        <time>2019-07-16T10:13:32Z</time>
      </trkpt>
      <trkpt lat="47.57891" lon="-2.81177">
        <ele>7.35</ele>
        <time>2019-07-16T10:13:47Z</time>
      </trkpt>
      <trkpt lat="47.57892" lon="-2.81178">
        <ele>7.35</ele>
        <time>2019-07-16T10:14:02Z</time>
      </trkpt>
      <trkpt lat="47.57893" lon="-2.81176">
        <ele>7.83</ele>
        <time>2019-07-16T10:14:17Z</time>
      </trkpt>
      <trkpt lat="47.57892" lon="-2.81175">
        <ele>8.31</ele>
        <time>2019-07-16T10:14:32Z</time>
      </trkpt>
      <trkpt lat="47.57892" lon="-2.81172">
        <ele>7.83</ele>
        <time>2019-07-16T10:14:47Z</time>
      </trkpt>
      <trkpt lat="47.5789" lon="-2.81166">
        <ele>7.35</ele>
        <time>2019-07-16T10:15:02Z</time>
      </trkpt>
      <trkpt lat="47.5789" lon="-2.81167">
        <ele>7.83</ele>
        <time>2019-07-16T10:15:17Z</time>
      </trkpt>
      <trkpt lat="47.57893" lon="-2.81168">
        <ele>7.35</ele>
        <time>2019-07-16T10:15:32Z</time>
      </trkpt>
      <trkpt lat="47.57894" lon="-2.81172">
        <ele>7.35</ele>
        <time>2019-07-16T10:15:47Z</time>
      </trkpt>
      <trkpt lat="47.57893" lon="-2.81173">
        <ele>7.83</ele>
        <time>2019-07-16T10:16:02Z</time>
      </trkpt>
      <trkpt lat="47.57891" lon="-2.81168">
        <ele>7.35</ele>
        <time>2019-07-16T10:16:17Z</time>
      </trkpt>
      <trkpt lat="47.57888" lon="-2.81166">
        <ele>7.83</ele>
        <time>2019-07-16T10:16:32Z</time>
      </trkpt>
      <trkpt lat="47.57888" lon="-2.81165">
        <ele>7.83</ele>
        <time>2019-07-16T10:16:47Z</time>
      </trkpt>
      <trkpt lat="47.57888" lon="-2.81165">
        <ele>7.83</ele>
        <time>2019-07-16T10:17:02Z</time>
      </trkpt>
      <trkpt lat="47.57887" lon="-2.81164">
        <ele>7.83</ele>
        <time>2019-07-16T10:17:17Z</time>
      </trkpt>
      <trkpt lat="47.57889" lon="-2.81167">
        <ele>7.83</ele>
        <time>2019-07-16T10:17:32Z</time>
      </trkpt>
      <trkpt lat="47.5789" lon="-2.81168">
        <ele>7.83</ele>
        <time>2019-07-16T10:17:47Z</time>
      </trkpt>
      <trkpt lat="47.57892" lon="-2.81169">
        <ele>7.83</ele>
        <time>2019-07-16T10:18:02Z</time>
      </trkpt>
      <trkpt lat="47.57891" lon="-2.8117">
        <ele>8.31</ele>
        <time>2019-07-16T10:18:17Z</time>
      </trkpt>
      <trkpt lat="47.57892" lon="-2.81168">
        <ele>8.31</ele>
        <time>2019-07-16T10:18:32Z</time>
      </trkpt>
      <trkpt lat="47.57892" lon="-2.81169">
        <ele>7.83</ele>
        <time>2019-07-16T10:18:47Z</time>
      </trkpt>
      <trkpt lat="47.57894" lon="-2.81169">
        <ele>8.31</ele>
        <time>2019-07-16T10:19:02Z</time>
      </trkpt>
      <trkpt lat="47.57894" lon="-2.81172">
        <ele>8.31</ele>
        <time>2019-07-16T10:19:17Z</time>
      </trkpt>
      <trkpt lat="47.57888" lon="-2.81164">
        <ele>8.31</ele>
        <time>2019-07-16T10:19:32Z</time>
      </trkpt>
      <trkpt lat="47.57888" lon="-2.81168">
        <ele>8.31</ele>
        <time>2019-07-16T10:19:47Z</time>
      </trkpt>
      <trkpt lat="47.57889" lon="-2.81169">
        <ele>7.83</ele>
        <time>2019-07-16T10:20:02Z</time>
      </trkpt>
      <trkpt lat="47.5789" lon="-2.81168">
        <ele>8.31</ele>
        <time>2019-07-16T10:20:17Z</time>
      </trkpt>
      <trkpt lat="47.57892" lon="-2.8117">
        <ele>7.83</ele>
        <time>2019-07-16T10:20:32Z</time>
      </trkpt>
      <trkpt lat="47.57889" lon="-2.81169">
        <ele>7.83</ele>
        <time>2019-07-16T10:20:47Z</time>
      </trkpt>
      <trkpt lat="47.57891" lon="-2.81169">
        <ele>7.83</ele>
        <time>2019-07-16T10:21:02Z</time>
      </trkpt>
      <trkpt lat="47.57891" lon="-2.81168">
        <ele>8.31</ele>
        <time>2019-07-16T10:21:17Z</time>
      </trkpt>
      <trkpt lat="47.57894" lon="-2.81171">
        <ele>8.31</ele>
        <time>2019-07-16T10:21:32Z</time>
      </trkpt>
      <trkpt lat="47.57893" lon="-2.81174">
        <ele>7.83</ele>
        <time>2019-07-16T10:21:47Z</time>
      </trkpt>
      <trkpt lat="47.57893" lon="-2.81172">
        <ele>8.31</ele>
        <time>2019-07-16T10:22:02Z</time>
      </trkpt>
      <trkpt lat="47.57893" lon="-2.81171">
        <ele>8.31</ele>
        <time>2019-07-16T10:22:17Z</time>
      </trkpt>
      <trkpt lat="47.5789" lon="-2.81168">
        <ele>8.31</ele>
        <time>2019-07-16T10:22:32Z</time>
      </trkpt>
      <trkpt lat="47.57888" lon="-2.81168">
        <ele>8.31</ele>
        <time>2019-07-16T10:22:47Z</time>
      </trkpt>
      <trkpt lat="47.57884" lon="-2.81164">
        <ele>8.31</ele>
        <time>2019-07-16T10:23:02Z</time>
      </trkpt>
      <trkpt lat="47.57882" lon="-2.81163">
        <ele>8.79</ele>
        <time>2019-07-16T10:23:17Z</time>
      </trkpt>
      <trkpt lat="47.57885" lon="-2.81158">
        <ele>8.31</ele>
        <time>2019-07-16T10:23:32Z</time>
      </trkpt>
      <trkpt lat="47.57894" lon="-2.81175">
        <ele>8.79</ele>
        <time>2019-07-16T10:23:47Z</time>
      </trkpt>
      <trkpt lat="47.57896" lon="-2.81182">
        <ele>8.79</ele>
        <time>2019-07-16T10:24:02Z</time>
      </trkpt>
      <trkpt lat="47.57896" lon="-2.8118">
        <ele>8.79</ele>
        <time>2019-07-16T10:24:17Z</time>
      </trkpt>
      <trkpt lat="47.57895" lon="-2.81178">
        <ele>8.31</ele>
        <time>2019-07-16T10:24:32Z</time>
      </trkpt>
      <trkpt lat="47.57895" lon="-2.81178">
        <ele>8.79</ele>
        <time>2019-07-16T10:24:47Z</time>
      </trkpt>
      <trkpt lat="47.57895" lon="-2.81179">
        <ele>8.79</ele>
        <time>2019-07-16T10:25:02Z</time>
      </trkpt>
      <trkpt lat="47.57895" lon="-2.81177">
        <ele>8.31</ele>
        <time>2019-07-16T10:25:17Z</time>
      </trkpt>
      <trkpt lat="47.57895" lon="-2.81176">
        <ele>8.79</ele>
        <time>2019-07-16T10:25:32Z</time>
      </trkpt>
      <trkpt lat="47.57892" lon="-2.81174">
        <ele>8.79</ele>
        <time>2019-07-16T10:25:47Z</time>
      </trkpt>
      <trkpt lat="47.57891" lon="-2.81175">
        <ele>8.31</ele>
        <time>2019-07-16T10:26:02Z</time>
      </trkpt>
      <trkpt lat="47.57892" lon="-2.81175">
        <ele>8.31</ele>
        <time>2019-07-16T10:26:17Z</time>
      </trkpt>
      <trkpt lat="47.57895" lon="-2.81181">
        <ele>8.31</ele>
        <time>2019-07-16T10:26:32Z</time>
      </trkpt>
      <trkpt lat="47.57895" lon="-2.81183">
        <ele>8.31</ele>
        <time>2019-07-16T10:26:47Z</time>
      </trkpt>
      <trkpt lat="47.57894" lon="-2.81182">
        <ele>8.31</ele>
        <time>2019-07-16T10:27:02Z</time>
      </trkpt>
      <trkpt lat="47.57896" lon="-2.81179">
        <ele>8.31</ele>
        <time>2019-07-16T10:27:17Z</time>
      </trkpt>
      <trkpt lat="47.57897" lon="-2.81178">
        <ele>8.31</ele>
        <time>2019-07-16T10:27:32Z</time>
      </trkpt>
      <trkpt lat="47.57896" lon="-2.81177">
        <ele>8.31</ele>
        <time>2019-07-16T10:27:47Z</time>
      </trkpt>
      <trkpt lat="47.57896" lon="-2.81177">
        <ele>9.27</ele>
        <time>2019-07-16T10:28:02Z</time>
      </trkpt>
      <trkpt lat="47.57895" lon="-2.81177">
        <ele>8.79</ele>
        <time>2019-07-16T10:28:17Z</time>
      </trkpt>
      <trkpt lat="47.57896" lon="-2.81178">
        <ele>8.79</ele>
        <time>2019-07-16T10:28:32Z</time>
      </trkpt>
      <trkpt lat="47.57898" lon="-2.81179">
        <ele>8.31</ele>
        <time>2019-07-16T10:28:47Z</time>
      </trkpt>
      <trkpt lat="47.57899" lon="-2.81177">
        <ele>9.27</ele>
        <time>2019-07-16T10:29:02Z</time>
      </trkpt>
      <trkpt lat="47.57898" lon="-2.81176">
        <ele>8.31</ele>
        <time>2019-07-16T10:29:17Z</time>
      </trkpt>
      <trkpt lat="47.57896" lon="-2.81177">
        <ele>9.27</ele>
        <time>2019-07-16T10:29:32Z</time>
      </trkpt>
      <trkpt lat="47.57895" lon="-2.81177">
        <ele>8.79</ele>
        <time>2019-07-16T10:29:47Z</time>
      </trkpt>
      <trkpt lat="47.57895" lon="-2.81174">
        <ele>8.79</ele>
        <time>2019-07-16T10:30:02Z</time>
      </trkpt>
      <trkpt lat="47.57899" lon="-2.81166">
        <ele>9.27</ele>
        <time>2019-07-16T10:30:17Z</time>
      </trkpt>
      <trkpt lat="47.57893" lon="-2.81165">
        <ele>9.27</ele>
        <time>2019-07-16T10:30:32Z</time>
      </trkpt>
      <trkpt lat="47.57894" lon="-2.81172">
        <ele>8.79</ele>
        <time>2019-07-16T10:30:47Z</time>
      </trkpt>
      <trkpt lat="47.57892" lon="-2.81174">
        <ele>8.79</ele>
        <time>2019-07-16T10:31:02Z</time>
      </trkpt>
      <trkpt lat="47.57897" lon="-2.81155">
        <ele>9.27</ele>
        <time>2019-07-16T10:31:17Z</time>
      </trkpt>
      <trkpt lat="47.57903" lon="-2.81153">
        <ele>9.27</ele>
        <time>2019-07-16T10:31:32Z</time>
      </trkpt>
      <trkpt lat="47.57894" lon="-2.81131">
        <ele>9.75</ele>
        <time>2019-07-16T10:31:47Z</time>
      </trkpt>
      <trkpt lat="47.57884" lon="-2.81108">
        <ele>9.75</ele>
        <time>2019-07-16T10:32:02Z</time>
      </trkpt>
      <trkpt lat="47.57872" lon="-2.81088">
        <ele>8.79</ele>
        <time>2019-07-16T10:32:17Z</time>
      </trkpt>
      <trkpt lat="47.57866" lon="-2.81071">
        <ele>9.27</ele>
        <time>2019-07-16T10:32:32Z</time>
      </trkpt>
      <trkpt lat="47.57865" lon="-2.81072">
        <ele>9.75</ele>
        <time>2019-07-16T10:32:47Z</time>
      </trkpt>
      <trkpt lat="47.57861" lon="-2.81049">
        <ele>9.27</ele>
        <time>2019-07-16T10:33:02Z</time>
      </trkpt>
      <trkpt lat="47.57852" lon="-2.81024">
        <ele>9.75</ele>
        <time>2019-07-16T10:33:17Z</time>
      </trkpt>
      <trkpt lat="47.57845" lon="-2.80999">
        <ele>9.75</ele>
        <time>2019-07-16T10:33:32Z</time>
      </trkpt>
      <trkpt lat="47.57842" lon="-2.80971">
        <ele>8.79</ele>
        <time>2019-07-16T10:33:47Z</time>
      </trkpt>
      <trkpt lat="47.57853" lon="-2.80951">
        <ele>9.75</ele>
        <time>2019-07-16T10:34:02Z</time>
      </trkpt>
      <trkpt lat="47.57858" lon="-2.80927">
        <ele>9.27</ele>
        <time>2019-07-16T10:34:17Z</time>
      </trkpt>
      <trkpt lat="47.57858" lon="-2.809">
        <ele>9.27</ele>
        <time>2019-07-16T10:34:32Z</time>
      </trkpt>
      <trkpt lat="47.57865" lon="-2.80876">
        <ele>8.31</ele>
        <time>2019-07-16T10:34:47Z</time>
      </trkpt>
      <trkpt lat="47.5788" lon="-2.80865">
        <ele>8.31</ele>
        <time>2019-07-16T10:35:02Z</time>
      </trkpt>
      <trkpt lat="47.57893" lon="-2.80853">
        <ele>7.83</ele>
        <time>2019-07-16T10:35:17Z</time>
      </trkpt>
      <trkpt lat="47.57908" lon="-2.80836">
        <ele>7.83</ele>
        <time>2019-07-16T10:35:32Z</time>
      </trkpt>
      <trkpt lat="47.57922" lon="-2.80817">
        <ele>7.35</ele>
        <time>2019-07-16T10:35:47Z</time>
      </trkpt>
      <trkpt lat="47.57938" lon="-2.80815">
        <ele>7.83</ele>
        <time>2019-07-16T10:36:02Z</time>
      </trkpt>
      <trkpt lat="47.57951" lon="-2.80819">
        <ele>8.79</ele>
        <time>2019-07-16T10:36:17Z</time>
      </trkpt>
      <trkpt lat="47.57949" lon="-2.80824">
        <ele>8.31</ele>
        <time>2019-07-16T10:36:32Z</time>
      </trkpt>
      <trkpt lat="47.57948" lon="-2.80827">
        <ele>8.79</ele>
        <time>2019-07-16T10:36:47Z</time>
      </trkpt>
      <trkpt lat="47.57947" lon="-2.80827">
        <ele>8.31</ele>
        <time>2019-07-16T10:37:02Z</time>
      </trkpt>
      <trkpt lat="47.57946" lon="-2.80828">
        <ele>8.31</ele>
        <time>2019-07-16T10:37:17Z</time>
      </trkpt>
      <trkpt lat="47.57946" lon="-2.80829">
        <ele>7.83</ele>
        <time>2019-07-16T10:37:32Z</time>
      </trkpt>
      <trkpt lat="47.57952" lon="-2.80814">
        <ele>8.31</ele>
        <time>2019-07-16T10:37:47Z</time>
      </trkpt>
      <trkpt lat="47.57964" lon="-2.80815">
        <ele>8.79</ele>
        <time>2019-07-16T10:38:02Z</time>
      </trkpt>
      <trkpt lat="47.57979" lon="-2.80816">
        <ele>9.27</ele>
        <time>2019-07-16T10:38:17Z</time>
      </trkpt>
      <trkpt lat="47.57997" lon="-2.80809">
        <ele>9.75</ele>
        <time>2019-07-16T10:38:32Z</time>
      </trkpt>
      <trkpt lat="47.58012" lon="-2.80805">
        <ele>9.75</ele>
        <time>2019-07-16T10:38:47Z</time>
      </trkpt>
      <trkpt lat="47.5803" lon="-2.80797">
        <ele>9.75</ele>
        <time>2019-07-16T10:39:02Z</time>
      </trkpt>
      <trkpt lat="47.58048" lon="-2.80789">
        <ele>9.27</ele>
        <time>2019-07-16T10:39:17Z</time>
      </trkpt>
      <trkpt lat="47.58067" lon="-2.80777">
        <ele>8.79</ele>
        <time>2019-07-16T10:39:32Z</time>
      </trkpt>
      <trkpt lat="47.58087" lon="-2.80769">
        <ele>7.83</ele>
        <time>2019-07-16T10:39:47Z</time>
      </trkpt>
      <trkpt lat="47.58107" lon="-2.80763">
        <ele>7.83</ele>
        <time>2019-07-16T10:40:02Z</time>
      </trkpt>
      <trkpt lat="47.58123" lon="-2.80754">
        <ele>6.39</ele>
        <time>2019-07-16T10:40:17Z</time>
      </trkpt>
      <trkpt lat="47.58138" lon="-2.8073">
        <ele>5.42</ele>
        <time>2019-07-16T10:40:32Z</time>
      </trkpt>
      <trkpt lat="47.58151" lon="-2.80709">
        <ele>4.94</ele>
        <time>2019-07-16T10:40:47Z</time>
      </trkpt>
      <trkpt lat="47.58161" lon="-2.80684">
        <ele>4.46</ele>
        <time>2019-07-16T10:41:02Z</time>
      </trkpt>
      <trkpt lat="47.58167" lon="-2.80657">
        <ele>4.46</ele>
        <time>2019-07-16T10:41:17Z</time>
      </trkpt>
      <trkpt lat="47.58173" lon="-2.80631">
        <ele>4.46</ele>
        <time>2019-07-16T10:41:32Z</time>
      </trkpt>
      <trkpt lat="47.58178" lon="-2.80604">
        <ele>4.94</ele>
        <time>2019-07-16T10:41:47Z</time>
      </trkpt>
      <trkpt lat="47.58183" lon="-2.80578">
        <ele>4.94</ele>
        <time>2019-07-16T10:42:02Z</time>
      </trkpt>
      <trkpt lat="47.58188" lon="-2.80555">
        <ele>5.42</ele>
        <time>2019-07-16T10:42:17Z</time>
      </trkpt>
      <trkpt lat="47.58189" lon="-2.80555">
        <ele>4.94</ele>
        <time>2019-07-16T10:42:32Z</time>
      </trkpt>
      <trkpt lat="47.58194" lon="-2.80527">
        <ele>6.39</ele>
        <time>2019-07-16T10:42:47Z</time>
      </trkpt>
      <trkpt lat="47.58198" lon="-2.80501">
        <ele>6.87</ele>
        <time>2019-07-16T10:43:02Z</time>
      </trkpt>
      <trkpt lat="47.582" lon="-2.80476">
        <ele>7.83</ele>
        <time>2019-07-16T10:43:17Z</time>
      </trkpt>
      <trkpt lat="47.582" lon="-2.80449">
        <ele>7.83</ele>
        <time>2019-07-16T10:43:32Z</time>
      </trkpt>
      <trkpt lat="47.58198" lon="-2.80418">
        <ele>7.35</ele>
        <time>2019-07-16T10:43:47Z</time>
      </trkpt>
      <trkpt lat="47.58196" lon="-2.8039">
        <ele>6.87</ele>
        <time>2019-07-16T10:44:02Z</time>
      </trkpt>
      <trkpt lat="47.58196" lon="-2.80386">
        <ele>6.87</ele>
        <time>2019-07-16T10:44:17Z</time>
      </trkpt>
      <trkpt lat="47.58196" lon="-2.80386">
        <ele>6.87</ele>
        <time>2019-07-16T10:44:32Z</time>
      </trkpt>
      <trkpt lat="47.58196" lon="-2.80385">
        <ele>7.35</ele>
        <time>2019-07-16T10:44:47Z</time>
      </trkpt>
      <trkpt lat="47.58198" lon="-2.80386">
        <ele>6.87</ele>
        <time>2019-07-16T10:45:02Z</time>
      </trkpt>
      <trkpt lat="47.582" lon="-2.80384">
        <ele>7.35</ele>
        <time>2019-07-16T10:45:17Z</time>
      </trkpt>
      <trkpt lat="47.58207" lon="-2.80381">
        <ele>7.35</ele>
        <time>2019-07-16T10:45:32Z</time>
      </trkpt>
      <trkpt lat="47.5822" lon="-2.80361">
        <ele>8.31</ele>
        <time>2019-07-16T10:45:47Z</time>
      </trkpt>
      <trkpt lat="47.58229" lon="-2.80336">
        <ele>7.35</ele>
        <time>2019-07-16T10:46:02Z</time>
      </trkpt>
      <trkpt lat="47.58243" lon="-2.80321">
        <ele>7.35</ele>
        <time>2019-07-16T10:46:17Z</time>
      </trkpt>
      <trkpt lat="47.58261" lon="-2.80321">
        <ele>7.83</ele>
        <time>2019-07-16T10:46:32Z</time>
      </trkpt>
      <trkpt lat="47.58263" lon="-2.80321">
        <ele>7.83</ele>
        <time>2019-07-16T10:46:47Z</time>
      </trkpt>
      <trkpt lat="47.58278" lon="-2.80336">
        <ele>8.31</ele>
        <time>2019-07-16T10:47:02Z</time>
      </trkpt>
      <trkpt lat="47.58292" lon="-2.80351">
        <ele>7.35</ele>
        <time>2019-07-16T10:47:17Z</time>
      </trkpt>
      <trkpt lat="47.58311" lon="-2.80349">
        <ele>7.35</ele>
        <time>2019-07-16T10:47:32Z</time>
      </trkpt>
      <trkpt lat="47.58325" lon="-2.8033">
        <ele>6.39</ele>
        <time>2019-07-16T10:47:47Z</time>
      </trkpt>
      <trkpt lat="47.58343" lon="-2.80318">
        <ele>5.42</ele>
        <time>2019-07-16T10:48:02Z</time>
      </trkpt>
      <trkpt lat="47.58362" lon="-2.80322">
        <ele>4.46</ele>
        <time>2019-07-16T10:48:17Z</time>
      </trkpt>
      <trkpt lat="47.58381" lon="-2.80315">
        <ele>4.46</ele>
        <time>2019-07-16T10:48:32Z</time>
      </trkpt>
      <trkpt lat="47.58399" lon="-2.80302">
        <ele>3.98</ele>
        <time>2019-07-16T10:48:47Z</time>
      </trkpt>
      <trkpt lat="47.58416" lon="-2.80286">
        <ele>3.98</ele>
        <time>2019-07-16T10:49:02Z</time>
      </trkpt>
      <trkpt lat="47.58432" lon="-2.80268">
        <ele>3.98</ele>
        <time>2019-07-16T10:49:17Z</time>
      </trkpt>
      <trkpt lat="47.58445" lon="-2.80252">
        <ele>3.98</ele>
        <time>2019-07-16T10:49:32Z</time>
      </trkpt>
      <trkpt lat="47.58455" lon="-2.80249">
        <ele>3.98</ele>
        <time>2019-07-16T10:49:47Z</time>
      </trkpt>
      <trkpt lat="47.58473" lon="-2.80238">
        <ele>3.98</ele>
        <time>2019-07-16T10:50:02Z</time>
      </trkpt>
      <trkpt lat="47.58495" lon="-2.80238">
        <ele>3.98</ele>
        <time>2019-07-16T10:50:17Z</time>
      </trkpt>
      <trkpt lat="47.58515" lon="-2.80242">
        <ele>3.5</ele>
        <time>2019-07-16T10:50:32Z</time>
      </trkpt>
      <trkpt lat="47.58533" lon="-2.80244">
        <ele>3.98</ele>
        <time>2019-07-16T10:50:47Z</time>
      </trkpt>
      <trkpt lat="47.58547" lon="-2.80244">
        <ele>3.98</ele>
        <time>2019-07-16T10:51:02Z</time>
      </trkpt>
      <trkpt lat="47.58564" lon="-2.80238">
        <ele>4.46</ele>
        <time>2019-07-16T10:51:17Z</time>
      </trkpt>
      <trkpt lat="47.58583" lon="-2.80234">
        <ele>4.46</ele>
        <time>2019-07-16T10:51:32Z</time>
      </trkpt>
      <trkpt lat="47.58598" lon="-2.80225">
        <ele>4.46</ele>
        <time>2019-07-16T10:51:47Z</time>
      </trkpt>
      <trkpt lat="47.5861" lon="-2.80223">
        <ele>4.46</ele>
        <time>2019-07-16T10:52:02Z</time>
      </trkpt>
      <trkpt lat="47.58609" lon="-2.80221">
        <ele>3.98</ele>
        <time>2019-07-16T10:52:17Z</time>
      </trkpt>
      <trkpt lat="47.58623" lon="-2.80209">
        <ele>4.46</ele>
        <time>2019-07-16T10:52:32Z</time>
      </trkpt>
      <trkpt lat="47.5864" lon="-2.80197">
        <ele>3.98</ele>
        <time>2019-07-16T10:52:47Z</time>
      </trkpt>
      <trkpt lat="47.58651" lon="-2.80192">
        <ele>3.98</ele>
        <time>2019-07-16T10:53:02Z</time>
      </trkpt>
      <trkpt lat="47.58666" lon="-2.8017">
        <ele>4.46</ele>
        <time>2019-07-16T10:53:17Z</time>
      </trkpt>
      <trkpt lat="47.58679" lon="-2.80152">
        <ele>4.46</ele>
        <time>2019-07-16T10:53:32Z</time>
      </trkpt>
      <trkpt lat="47.58693" lon="-2.80131">
        <ele>3.98</ele>
        <time>2019-07-16T10:53:47Z</time>
      </trkpt>
      <trkpt lat="47.58703" lon="-2.8011">
        <ele>3.98</ele>
        <time>2019-07-16T10:54:02Z</time>
      </trkpt>
      <trkpt lat="47.58714" lon="-2.80094">
        <ele>3.5</ele>
        <time>2019-07-16T10:54:17Z</time>
      </trkpt>
      <trkpt lat="47.5872" lon="-2.80066">
        <ele>3.98</ele>
        <time>2019-07-16T10:54:32Z</time>
      </trkpt>
      <trkpt lat="47.58729" lon="-2.80046">
        <ele>3.98</ele>
        <time>2019-07-16T10:54:47Z</time>
      </trkpt>
      <trkpt lat="47.58741" lon="-2.80023">
        <ele>3.98</ele>
        <time>2019-07-16T10:55:02Z</time>
      </trkpt>
      <trkpt lat="47.58755" lon="-2.80015">
        <ele>4.46</ele>
        <time>2019-07-16T10:55:17Z</time>
      </trkpt>
      <trkpt lat="47.58771" lon="-2.8">
        <ele>4.46</ele>
        <time>2019-07-16T10:55:32Z</time>
      </trkpt>
      <trkpt lat="47.58781" lon="-2.79975">
        <ele>4.94</ele>
        <time>2019-07-16T10:55:47Z</time>
      </trkpt>
      <trkpt lat="47.58786" lon="-2.79954">
        <ele>4.94</ele>
        <time>2019-07-16T10:56:02Z</time>
      </trkpt>
      <trkpt lat="47.58788" lon="-2.79942">
        <ele>5.91</ele>
        <time>2019-07-16T10:56:17Z</time>
      </trkpt>
      <trkpt lat="47.58798" lon="-2.79924">
        <ele>4.94</ele>
        <time>2019-07-16T10:56:32Z</time>
      </trkpt>
      <trkpt lat="47.58812" lon="-2.7991">
        <ele>5.91</ele>
        <time>2019-07-16T10:56:47Z</time>
      </trkpt>
      <trkpt lat="47.58829" lon="-2.79916">
        <ele>5.91</ele>
        <time>2019-07-16T10:57:02Z</time>
      </trkpt>
      <trkpt lat="47.58839" lon="-2.79931">
        <ele>6.39</ele>
        <time>2019-07-16T10:57:17Z</time>
      </trkpt>
      <trkpt lat="47.58843" lon="-2.79931">
        <ele>6.39</ele>
        <time>2019-07-16T10:57:32Z</time>
      </trkpt>
      <trkpt lat="47.58846" lon="-2.79927">
        <ele>5.91</ele>
        <time>2019-07-16T10:57:47Z</time>
      </trkpt>
      <trkpt lat="47.58849" lon="-2.79932">
        <ele>6.39</ele>
        <time>2019-07-16T10:58:02Z</time>
      </trkpt>
      <trkpt lat="47.58861" lon="-2.79944">
        <ele>5.91</ele>
        <time>2019-07-16T10:58:17Z</time>
      </trkpt>
      <trkpt lat="47.58875" lon="-2.79946">
        <ele>6.87</ele>
        <time>2019-07-16T10:58:32Z</time>
      </trkpt>
      <trkpt lat="47.58892" lon="-2.79948">
        <ele>5.91</ele>
        <time>2019-07-16T10:58:47Z</time>
      </trkpt>
      <trkpt lat="47.58902" lon="-2.79957">
        <ele>6.87</ele>
        <time>2019-07-16T10:59:02Z</time>
      </trkpt>
      <trkpt lat="47.58921" lon="-2.79964">
        <ele>7.35</ele>
        <time>2019-07-16T10:59:17Z</time>
      </trkpt>
      <trkpt lat="47.58938" lon="-2.79967">
        <ele>8.31</ele>
        <time>2019-07-16T10:59:32Z</time>
      </trkpt>
      <trkpt lat="47.58959" lon="-2.79969">
        <ele>8.31</ele>
        <time>2019-07-16T10:59:47Z</time>
      </trkpt>
      <trkpt lat="47.58976" lon="-2.79964">
        <ele>8.31</ele>
        <time>2019-07-16T11:00:02Z</time>
      </trkpt>
      <trkpt lat="47.58975" lon="-2.79939">
        <ele>6.87</ele>
        <time>2019-07-16T11:00:17Z</time>
      </trkpt>
      <trkpt lat="47.58976" lon="-2.79911">
        <ele>4.94</ele>
        <time>2019-07-16T11:00:32Z</time>
      </trkpt>
      <trkpt lat="47.58984" lon="-2.79896">
        <ele>4.94</ele>
        <time>2019-07-16T11:00:47Z</time>
      </trkpt>
      <trkpt lat="47.58997" lon="-2.79867">
        <ele>3.5</ele>
        <time>2019-07-16T11:01:02Z</time>
      </trkpt>
      <trkpt lat="47.59011" lon="-2.79854">
        <ele>3.02</ele>
        <time>2019-07-16T11:01:17Z</time>
      </trkpt>
      <trkpt lat="47.5902" lon="-2.79821">
        <ele>2.54</ele>
        <time>2019-07-16T11:01:32Z</time>
      </trkpt>
      <trkpt lat="47.59029" lon="-2.79797">
        <ele>3.02</ele>
        <time>2019-07-16T11:01:47Z</time>
      </trkpt>
      <trkpt lat="47.5903" lon="-2.79772">
        <ele>2.06</ele>
        <time>2019-07-16T11:02:02Z</time>
      </trkpt>
      <trkpt lat="47.59036" lon="-2.79743">
        <ele>1.58</ele>
        <time>2019-07-16T11:02:17Z</time>
      </trkpt>
      <trkpt lat="47.59043" lon="-2.79723">
        <ele>2.06</ele>
        <time>2019-07-16T11:02:32Z</time>
      </trkpt>
      <trkpt lat="47.59047" lon="-2.79699">
        <ele>2.06</ele>
        <time>2019-07-16T11:02:47Z</time>
      </trkpt>
      <trkpt lat="47.5905" lon="-2.79675">
        <ele>2.06</ele>
        <time>2019-07-16T11:03:02Z</time>
      </trkpt>
      <trkpt lat="47.59053" lon="-2.79657">
        <ele>2.54</ele>
        <time>2019-07-16T11:03:17Z</time>
      </trkpt>
      <trkpt lat="47.59055" lon="-2.79653">
        <ele>2.54</ele>
        <time>2019-07-16T11:03:32Z</time>
      </trkpt>
      <trkpt lat="47.59058" lon="-2.79645">
        <ele>2.54</ele>
        <time>2019-07-16T11:03:47Z</time>
      </trkpt>
      <trkpt lat="47.59069" lon="-2.79633">
        <ele>3.02</ele>
        <time>2019-07-16T11:04:02Z</time>
      </trkpt>
      <trkpt lat="47.59082" lon="-2.79624">
        <ele>3.5</ele>
        <time>2019-07-16T11:04:17Z</time>
      </trkpt>
      <trkpt lat="47.5909" lon="-2.7961">
        <ele>4.46</ele>
        <time>2019-07-16T11:04:32Z</time>
      </trkpt>
      <trkpt lat="47.59104" lon="-2.79601">
        <ele>5.42</ele>
        <time>2019-07-16T11:04:47Z</time>
      </trkpt>
      <trkpt lat="47.59126" lon="-2.7959">
        <ele>6.39</ele>
        <time>2019-07-16T11:05:02Z</time>
      </trkpt>
      <trkpt lat="47.59144" lon="-2.79583">
        <ele>5.91</ele>
        <time>2019-07-16T11:05:17Z</time>
      </trkpt>
      <trkpt lat="47.59162" lon="-2.79574">
        <ele>5.42</ele>
        <time>2019-07-16T11:05:32Z</time>
      </trkpt>
      <trkpt lat="47.59167" lon="-2.79562">
        <ele>4.46</ele>
        <time>2019-07-16T11:05:47Z</time>
      </trkpt>
      <trkpt lat="47.5917" lon="-2.7956">
        <ele>3.98</ele>
        <time>2019-07-16T11:06:02Z</time>
      </trkpt>
      <trkpt lat="47.59172" lon="-2.79568">
        <ele>3.98</ele>
        <time>2019-07-16T11:06:17Z</time>
      </trkpt>
      <trkpt lat="47.5917" lon="-2.79565">
        <ele>4.94</ele>
        <time>2019-07-16T11:06:32Z</time>
      </trkpt>
      <trkpt lat="47.59179" lon="-2.7955">
        <ele>2.54</ele>
        <time>2019-07-16T11:06:47Z</time>
      </trkpt>
      <trkpt lat="47.59193" lon="-2.7954">
        <ele>1.58</ele>
        <time>2019-07-16T11:07:02Z</time>
      </trkpt>
      <trkpt lat="47.59216" lon="-2.79514">
        <ele>1.58</ele>
        <time>2019-07-16T11:07:17Z</time>
      </trkpt>
      <trkpt lat="47.59235" lon="-2.795">
        <ele>1.1</ele>
        <time>2019-07-16T11:07:32Z</time>
      </trkpt>
      <trkpt lat="47.59245" lon="-2.7949">
        <ele>1.1</ele>
        <time>2019-07-16T11:07:47Z</time>
      </trkpt>
      <trkpt lat="47.59243" lon="-2.79481">
        <ele>1.1</ele>
        <time>2019-07-16T11:08:02Z</time>
      </trkpt>
      <trkpt lat="47.59246" lon="-2.79495">
        <ele>1.1</ele>
        <time>2019-07-16T11:08:17Z</time>
      </trkpt>
      <trkpt lat="47.59246" lon="-2.79492">
        <ele>1.58</ele>
        <time>2019-07-16T11:08:32Z</time>
      </trkpt>
      <trkpt lat="47.59246" lon="-2.79491">
        <ele>0.62</ele>
        <time>2019-07-16T11:08:47Z</time>
      </trkpt>
      <trkpt lat="47.5925" lon="-2.7949">
        <ele>0.62</ele>
        <time>2019-07-16T11:09:02Z</time>
      </trkpt>
      <trkpt lat="47.59249" lon="-2.79494">
        <ele>1.1</ele>
        <time>2019-07-16T11:09:17Z</time>
      </trkpt>
      <trkpt lat="47.59247" lon="-2.79481">
        <ele>0.62</ele>
        <time>2019-07-16T11:09:32Z</time>
      </trkpt>
      <trkpt lat="47.59253" lon="-2.79477">
        <ele>1.1</ele>
        <time>2019-07-16T11:09:47Z</time>
      </trkpt>
      <trkpt lat="47.59249" lon="-2.7948">
        <ele>1.1</ele>
        <time>2019-07-16T11:10:02Z</time>
      </trkpt>
      <trkpt lat="47.59241" lon="-2.79457">
        <ele>0.14</ele>
        <time>2019-07-16T11:10:17Z</time>
      </trkpt>
      <trkpt lat="47.59239" lon="-2.79438">
        <ele>-0.34</ele>
        <time>2019-07-16T11:10:32Z</time>
      </trkpt>
      <trkpt lat="47.5925" lon="-2.79419">
        <ele>-0.82</ele>
        <time>2019-07-16T11:10:47Z</time>
      </trkpt>
      <trkpt lat="47.59262" lon="-2.79406">
        <ele>-0.82</ele>
        <time>2019-07-16T11:11:02Z</time>
      </trkpt>
      <trkpt lat="47.59273" lon="-2.79397">
        <ele>-0.82</ele>
        <time>2019-07-16T11:11:17Z</time>
      </trkpt>
      <trkpt lat="47.59284" lon="-2.79388">
        <ele>0.14</ele>
        <time>2019-07-16T11:11:32Z</time>
      </trkpt>
      <trkpt lat="47.59293" lon="-2.79379">
        <ele>-0.82</ele>
        <time>2019-07-16T11:11:47Z</time>
      </trkpt>
      <trkpt lat="47.59304" lon="-2.79369">
        <ele>-0.34</ele>
        <time>2019-07-16T11:12:02Z</time>
      </trkpt>
      <trkpt lat="47.59314" lon="-2.79359">
        <ele>0.14</ele>
        <time>2019-07-16T11:12:17Z</time>
      </trkpt>
      <trkpt lat="47.59323" lon="-2.79347">
        <ele>-0.34</ele>
        <time>2019-07-16T11:12:32Z</time>
      </trkpt>
      <trkpt lat="47.59332" lon="-2.79332">
        <ele>0.14</ele>
        <time>2019-07-16T11:12:47Z</time>
      </trkpt>
      <trkpt lat="47.59341" lon="-2.79315">
        <ele>0.14</ele>
        <time>2019-07-16T11:13:02Z</time>
      </trkpt>
      <trkpt lat="47.59346" lon="-2.79307">
        <ele>0.62</ele>
        <time>2019-07-16T11:13:17Z</time>
      </trkpt>
      <trkpt lat="47.59348" lon="-2.79286">
        <ele>0.62</ele>
        <time>2019-07-16T11:13:32Z</time>
      </trkpt>
      <trkpt lat="47.59352" lon="-2.79264">
        <ele>0.62</ele>
        <time>2019-07-16T11:13:47Z</time>
      </trkpt>
      <trkpt lat="47.59362" lon="-2.79267">
        <ele>0.62</ele>
        <time>2019-07-16T11:14:02Z</time>
      </trkpt>
      <trkpt lat="47.59361" lon="-2.79268">
        <ele>1.1</ele>
        <time>2019-07-16T11:14:17Z</time>
      </trkpt>
      <trkpt lat="47.59361" lon="-2.79262">
        <ele>1.58</ele>
        <time>2019-07-16T11:14:32Z</time>
      </trkpt>
      <trkpt lat="47.59368" lon="-2.79264">
        <ele>3.5</ele>
        <time>2019-07-16T11:14:47Z</time>
      </trkpt>
      <trkpt lat="47.59375" lon="-2.79249">
        <ele>3.02</ele>
        <time>2019-07-16T11:15:02Z</time>
      </trkpt>
      <trkpt lat="47.59378" lon="-2.79228">
        <ele>3.98</ele>
        <time>2019-07-16T11:15:17Z</time>
      </trkpt>
      <trkpt lat="47.59384" lon="-2.79218">
        <ele>3.02</ele>
        <time>2019-07-16T11:15:32Z</time>
      </trkpt>
      <trkpt lat="47.59391" lon="-2.79193">
        <ele>3.5</ele>
        <time>2019-07-16T11:15:47Z</time>
      </trkpt>
      <trkpt lat="47.59404" lon="-2.79198">
        <ele>3.5</ele>
        <time>2019-07-16T11:16:02Z</time>
      </trkpt>
      <trkpt lat="47.59418" lon="-2.79203">
        <ele>4.94</ele>
        <time>2019-07-16T11:16:17Z</time>
      </trkpt>
      <trkpt lat="47.59423" lon="-2.79203">
        <ele>4.94</ele>
        <time>2019-07-16T11:16:32Z</time>
      </trkpt>
      <trkpt lat="47.59423" lon="-2.79197">
        <ele>5.91</ele>
        <time>2019-07-16T11:16:47Z</time>
      </trkpt>
      <trkpt lat="47.59424" lon="-2.79188">
        <ele>5.42</ele>
        <time>2019-07-16T11:17:02Z</time>
      </trkpt>
      <trkpt lat="47.59421" lon="-2.79162">
        <ele>5.42</ele>
        <time>2019-07-16T11:17:17Z</time>
      </trkpt>
      <trkpt lat="47.59422" lon="-2.79136">
        <ele>4.94</ele>
        <time>2019-07-16T11:17:32Z</time>
      </trkpt>
      <trkpt lat="47.59425" lon="-2.79122">
        <ele>4.94</ele>
        <time>2019-07-16T11:17:47Z</time>
      </trkpt>
      <trkpt lat="47.59431" lon="-2.79108">
        <ele>5.42</ele>
        <time>2019-07-16T11:18:02Z</time>
      </trkpt>
      <trkpt lat="47.59442" lon="-2.79087">
        <ele>5.42</ele>
        <time>2019-07-16T11:18:17Z</time>
      </trkpt>
      <trkpt lat="47.59454" lon="-2.79066">
        <ele>4.94</ele>
        <time>2019-07-16T11:18:32Z</time>
      </trkpt>
      <trkpt lat="47.59442" lon="-2.79053">
        <ele>4.46</ele>
        <time>2019-07-16T11:18:47Z</time>
      </trkpt>
      <trkpt lat="47.59433" lon="-2.7905">
        <ele>3.98</ele>
        <time>2019-07-16T11:19:02Z</time>
      </trkpt>
      <trkpt lat="47.59425" lon="-2.79037">
        <ele>3.98</ele>
        <time>2019-07-16T11:19:17Z</time>
      </trkpt>
      <trkpt lat="47.5941" lon="-2.79024">
        <ele>3.5</ele>
        <time>2019-07-16T11:19:32Z</time>
      </trkpt>
      <trkpt lat="47.59405" lon="-2.79018">
        <ele>2.54</ele>
        <time>2019-07-16T11:19:47Z</time>
      </trkpt>
      <trkpt lat="47.59399" lon="-2.79021">
        <ele>2.54</ele>
        <time>2019-07-16T11:20:02Z</time>
      </trkpt>
      <trkpt lat="47.59395" lon="-2.79023">
        <ele>3.02</ele>
        <time>2019-07-16T11:20:17Z</time>
      </trkpt>
      <trkpt lat="47.59404" lon="-2.79012">
        <ele>2.54</ele>
        <time>2019-07-16T11:20:32Z</time>
      </trkpt>
      <trkpt lat="47.59405" lon="-2.79011">
        <ele>2.54</ele>
        <time>2019-07-16T11:20:47Z</time>
      </trkpt>
      <trkpt lat="47.59404" lon="-2.79014">
        <ele>2.54</ele>
        <time>2019-07-16T11:21:02Z</time>
      </trkpt>
      <trkpt lat="47.59402" lon="-2.79016">
        <ele>3.02</ele>
        <time>2019-07-16T11:21:17Z</time>
      </trkpt>
      <trkpt lat="47.59395" lon="-2.79022">
        <ele>2.54</ele>
        <time>2019-07-16T11:21:32Z</time>
      </trkpt>
      <trkpt lat="47.59405" lon="-2.7901">
        <ele>3.5</ele>
        <time>2019-07-16T11:21:47Z</time>
      </trkpt>
      <trkpt lat="47.59401" lon="-2.79012">
        <ele>2.54</ele>
        <time>2019-07-16T11:22:02Z</time>
      </trkpt>
      <trkpt lat="47.59398" lon="-2.79007">
        <ele>2.54</ele>
        <time>2019-07-16T11:22:17Z</time>
      </trkpt>
      <trkpt lat="47.594" lon="-2.78976">
        <ele>3.02</ele>
        <time>2019-07-16T11:22:32Z</time>
      </trkpt>
      <trkpt lat="47.59397" lon="-2.78946">
        <ele>2.54</ele>
        <time>2019-07-16T11:22:47Z</time>
      </trkpt>
      <trkpt lat="47.59391" lon="-2.78921">
        <ele>2.06</ele>
        <time>2019-07-16T11:23:02Z</time>
      </trkpt>
      <trkpt lat="47.59385" lon="-2.78896">
        <ele>3.02</ele>
        <time>2019-07-16T11:23:17Z</time>
      </trkpt>
      <trkpt lat="47.59378" lon="-2.78871">
        <ele>2.54</ele>
        <time>2019-07-16T11:23:32Z</time>
      </trkpt>
      <trkpt lat="47.59373" lon="-2.78846">
        <ele>2.54</ele>
        <time>2019-07-16T11:23:47Z</time>
      </trkpt>
      <trkpt lat="47.59367" lon="-2.78824">
        <ele>3.02</ele>
        <time>2019-07-16T11:24:02Z</time>
      </trkpt>
      <trkpt lat="47.5936" lon="-2.78798">
        <ele>3.5</ele>
        <time>2019-07-16T11:24:17Z</time>
      </trkpt>
      <trkpt lat="47.59352" lon="-2.78773">
        <ele>3.02</ele>
        <time>2019-07-16T11:24:32Z</time>
      </trkpt>
      <trkpt lat="47.59343" lon="-2.78747">
        <ele>3.02</ele>
        <time>2019-07-16T11:24:47Z</time>
      </trkpt>
      <trkpt lat="47.59333" lon="-2.78724">
        <ele>3.5</ele>
        <time>2019-07-16T11:25:02Z</time>
      </trkpt>
      <trkpt lat="47.59321" lon="-2.78701">
        <ele>2.54</ele>
        <time>2019-07-16T11:25:17Z</time>
      </trkpt>
      <trkpt lat="47.59309" lon="-2.78682">
        <ele>3.5</ele>
        <time>2019-07-16T11:25:32Z</time>
      </trkpt>
      <trkpt lat="47.59296" lon="-2.78661">
        <ele>3.02</ele>
        <time>2019-07-16T11:25:47Z</time>
      </trkpt>
      <trkpt lat="47.59283" lon="-2.7864">
        <ele>2.54</ele>
        <time>2019-07-16T11:26:02Z</time>
      </trkpt>
      <trkpt lat="47.59269" lon="-2.7862">
        <ele>3.5</ele>
        <time>2019-07-16T11:26:17Z</time>
      </trkpt>
      <trkpt lat="47.59255" lon="-2.78603">
        <ele>3.02</ele>
        <time>2019-07-16T11:26:32Z</time>
      </trkpt>
      <trkpt lat="47.59241" lon="-2.78584">
        <ele>3.02</ele>
        <time>2019-07-16T11:26:47Z</time>
      </trkpt>
      <trkpt lat="47.59224" lon="-2.78567">
        <ele>3.02</ele>
        <time>2019-07-16T11:27:02Z</time>
      </trkpt>
      <trkpt lat="47.59208" lon="-2.78553">
        <ele>3.02</ele>
        <time>2019-07-16T11:27:17Z</time>
      </trkpt>
      <trkpt lat="47.59192" lon="-2.78536">
        <ele>3.02</ele>
        <time>2019-07-16T11:27:32Z</time>
      </trkpt>
      <trkpt lat="47.59175" lon="-2.78523">
        <ele>3.02</ele>
        <time>2019-07-16T11:27:47Z</time>
      </trkpt>
      <trkpt lat="47.59157" lon="-2.78518">
        <ele>2.54</ele>
        <time>2019-07-16T11:28:02Z</time>
      </trkpt>
      <trkpt lat="47.5914" lon="-2.78505">
        <ele>3.5</ele>
        <time>2019-07-16T11:28:17Z</time>
      </trkpt>
      <trkpt lat="47.59128" lon="-2.78509">
        <ele>3.5</ele>
        <time>2019-07-16T11:28:32Z</time>
      </trkpt>
      <trkpt lat="47.59117" lon="-2.78517">
        <ele>3.5</ele>
        <time>2019-07-16T11:28:47Z</time>
      </trkpt>
      <trkpt lat="47.59099" lon="-2.78528">
        <ele>3.5</ele>
        <time>2019-07-16T11:29:02Z</time>
      </trkpt>
      <trkpt lat="47.59082" lon="-2.78543">
        <ele>3.5</ele>
        <time>2019-07-16T11:29:17Z</time>
      </trkpt>
      <trkpt lat="47.59064" lon="-2.78554">
        <ele>3.5</ele>
        <time>2019-07-16T11:29:32Z</time>
      </trkpt>
      <trkpt lat="47.59049" lon="-2.78573">
        <ele>3.98</ele>
        <time>2019-07-16T11:29:47Z</time>
      </trkpt>
      <trkpt lat="47.5904" lon="-2.78598">
        <ele>3.98</ele>
        <time>2019-07-16T11:30:02Z</time>
      </trkpt>
      <trkpt lat="47.59031" lon="-2.7862">
        <ele>3.98</ele>
        <time>2019-07-16T11:30:17Z</time>
      </trkpt>
      <trkpt lat="47.59019" lon="-2.78629">
        <ele>5.42</ele>
        <time>2019-07-16T11:30:32Z</time>
      </trkpt>
      <trkpt lat="47.59003" lon="-2.78637">
        <ele>4.94</ele>
        <time>2019-07-16T11:30:47Z</time>
      </trkpt>
      <trkpt lat="47.58989" lon="-2.78657">
        <ele>4.94</ele>
        <time>2019-07-16T11:31:02Z</time>
      </trkpt>
      <trkpt lat="47.5897" lon="-2.78652">
        <ele>3.98</ele>
        <time>2019-07-16T11:31:17Z</time>
      </trkpt>
      <trkpt lat="47.58964" lon="-2.78631">
        <ele>3.5</ele>
        <time>2019-07-16T11:31:32Z</time>
      </trkpt>
      <trkpt lat="47.58955" lon="-2.78608">
        <ele>3.5</ele>
        <time>2019-07-16T11:31:47Z</time>
      </trkpt>
      <trkpt lat="47.58956" lon="-2.78604">
        <ele>3.98</ele>
        <time>2019-07-16T11:32:02Z</time>
      </trkpt>
      <trkpt lat="47.58954" lon="-2.78605">
        <ele>4.46</ele>
        <time>2019-07-16T11:32:17Z</time>
      </trkpt>
      <trkpt lat="47.58954" lon="-2.7859">
        <ele>3.5</ele>
        <time>2019-07-16T11:32:32Z</time>
      </trkpt>
      <trkpt lat="47.58963" lon="-2.78567">
        <ele>3.98</ele>
        <time>2019-07-16T11:32:47Z</time>
      </trkpt>
      <trkpt lat="47.5897" lon="-2.78548">
        <ele>3.5</ele>
        <time>2019-07-16T11:33:02Z</time>
      </trkpt>
      <trkpt lat="47.58976" lon="-2.78525">
        <ele>3.02</ele>
        <time>2019-07-16T11:33:17Z</time>
      </trkpt>
      <trkpt lat="47.58977" lon="-2.78496">
        <ele>3.02</ele>
        <time>2019-07-16T11:33:32Z</time>
      </trkpt>
      <trkpt lat="47.58974" lon="-2.78468">
        <ele>3.02</ele>
        <time>2019-07-16T11:33:47Z</time>
      </trkpt>
      <trkpt lat="47.58969" lon="-2.78439">
        <ele>3.02</ele>
        <time>2019-07-16T11:34:02Z</time>
      </trkpt>
      <trkpt lat="47.58968" lon="-2.7841">
        <ele>3.02</ele>
        <time>2019-07-16T11:34:17Z</time>
      </trkpt>
      <trkpt lat="47.58968" lon="-2.78381">
        <ele>2.54</ele>
        <time>2019-07-16T11:34:32Z</time>
      </trkpt>
      <trkpt lat="47.58965" lon="-2.78354">
        <ele>2.54</ele>
        <time>2019-07-16T11:34:47Z</time>
      </trkpt>
      <trkpt lat="47.58962" lon="-2.78328">
        <ele>3.02</ele>
        <time>2019-07-16T11:35:02Z</time>
      </trkpt>
      <trkpt lat="47.58956" lon="-2.78302">
        <ele>3.02</ele>
        <time>2019-07-16T11:35:17Z</time>
      </trkpt>
      <trkpt lat="47.58948" lon="-2.78278">
        <ele>2.54</ele>
        <time>2019-07-16T11:35:32Z</time>
      </trkpt>
      <trkpt lat="47.58942" lon="-2.7825">
        <ele>2.54</ele>
        <time>2019-07-16T11:35:47Z</time>
      </trkpt>
      <trkpt lat="47.58931" lon="-2.7823">
        <ele>3.02</ele>
        <time>2019-07-16T11:36:02Z</time>
      </trkpt>
      <trkpt lat="47.58925" lon="-2.78204">
        <ele>2.54</ele>
        <time>2019-07-16T11:36:17Z</time>
      </trkpt>
      <trkpt lat="47.58919" lon="-2.78181">
        <ele>3.02</ele>
        <time>2019-07-16T11:36:32Z</time>
      </trkpt>
      <trkpt lat="47.58913" lon="-2.78167">
        <ele>3.5</ele>
        <time>2019-07-16T11:36:47Z</time>
      </trkpt>
      <trkpt lat="47.58916" lon="-2.78168">
        <ele>3.02</ele>
        <time>2019-07-16T11:37:02Z</time>
      </trkpt>
      <trkpt lat="47.5891" lon="-2.78166">
        <ele>2.06</ele>
        <time>2019-07-16T11:37:17Z</time>
      </trkpt>
      <trkpt lat="47.58902" lon="-2.78151">
        <ele>3.02</ele>
        <time>2019-07-16T11:37:32Z</time>
      </trkpt>
      <trkpt lat="47.58889" lon="-2.7814">
        <ele>3.02</ele>
        <time>2019-07-16T11:37:47Z</time>
      </trkpt>
      <trkpt lat="47.58886" lon="-2.78134">
        <ele>3.98</ele>
        <time>2019-07-16T11:38:02Z</time>
      </trkpt>
      <trkpt lat="47.58887" lon="-2.78119">
        <ele>3.02</ele>
        <time>2019-07-16T11:38:17Z</time>
      </trkpt>
      <trkpt lat="47.58872" lon="-2.781">
        <ele>3.5</ele>
        <time>2019-07-16T11:38:32Z</time>
      </trkpt>
      <trkpt lat="47.58862" lon="-2.78079">
        <ele>3.5</ele>
        <time>2019-07-16T11:38:47Z</time>
      </trkpt>
      <trkpt lat="47.58847" lon="-2.78069">
        <ele>3.5</ele>
        <time>2019-07-16T11:39:02Z</time>
      </trkpt>
      <trkpt lat="47.58835" lon="-2.78049">
        <ele>3.98</ele>
        <time>2019-07-16T11:39:17Z</time>
      </trkpt>
      <trkpt lat="47.5882" lon="-2.78029">
        <ele>3.98</ele>
        <time>2019-07-16T11:39:32Z</time>
      </trkpt>
      <trkpt lat="47.58807" lon="-2.78008">
        <ele>3.5</ele>
        <time>2019-07-16T11:39:47Z</time>
      </trkpt>
      <trkpt lat="47.58793" lon="-2.77989">
        <ele>3.98</ele>
        <time>2019-07-16T11:40:02Z</time>
      </trkpt>
      <trkpt lat="47.58779" lon="-2.7797">
        <ele>3.98</ele>
        <time>2019-07-16T11:40:17Z</time>
      </trkpt>
      <trkpt lat="47.58765" lon="-2.77952">
        <ele>4.46</ele>
        <time>2019-07-16T11:40:32Z</time>
      </trkpt>
      <trkpt lat="47.58751" lon="-2.77935">
        <ele>4.94</ele>
        <time>2019-07-16T11:40:47Z</time>
      </trkpt>
      <trkpt lat="47.58744" lon="-2.77924">
        <ele>5.91</ele>
        <time>2019-07-16T11:41:02Z</time>
      </trkpt>
      <trkpt lat="47.58744" lon="-2.77923">
        <ele>6.39</ele>
        <time>2019-07-16T11:41:17Z</time>
      </trkpt>
      <trkpt lat="47.58743" lon="-2.77919">
        <ele>5.91</ele>
        <time>2019-07-16T11:41:32Z</time>
      </trkpt>
      <trkpt lat="47.58742" lon="-2.77922">
        <ele>5.91</ele>
        <time>2019-07-16T11:41:47Z</time>
      </trkpt>
      <trkpt lat="47.58742" lon="-2.77923">
        <ele>5.42</ele>
        <time>2019-07-16T11:42:02Z</time>
      </trkpt>
      <trkpt lat="47.58744" lon="-2.77922">
        <ele>6.39</ele>
        <time>2019-07-16T11:42:17Z</time>
      </trkpt>
      <trkpt lat="47.58751" lon="-2.77926">
        <ele>5.91</ele>
        <time>2019-07-16T11:42:32Z</time>
      </trkpt>
      <trkpt lat="47.58742" lon="-2.7793">
        <ele>5.91</ele>
        <time>2019-07-16T11:42:47Z</time>
      </trkpt>
      <trkpt lat="47.58741" lon="-2.77925">
        <ele>5.91</ele>
        <time>2019-07-16T11:43:02Z</time>
      </trkpt>
      <trkpt lat="47.58727" lon="-2.77918">
        <ele>4.94</ele>
        <time>2019-07-16T11:43:17Z</time>
      </trkpt>
      <trkpt lat="47.5871" lon="-2.7791">
        <ele>4.94</ele>
        <time>2019-07-16T11:43:32Z</time>
      </trkpt>
      <trkpt lat="47.58692" lon="-2.77902">
        <ele>4.46</ele>
        <time>2019-07-16T11:43:47Z</time>
      </trkpt>
      <trkpt lat="47.58676" lon="-2.77891">
        <ele>3.98</ele>
        <time>2019-07-16T11:44:02Z</time>
      </trkpt>
      <trkpt lat="47.58661" lon="-2.77875">
        <ele>4.46</ele>
        <time>2019-07-16T11:44:17Z</time>
      </trkpt>
      <trkpt lat="47.58659" lon="-2.77851">
        <ele>4.94</ele>
        <time>2019-07-16T11:44:32Z</time>
      </trkpt>
      <trkpt lat="47.58658" lon="-2.77826">
        <ele>4.94</ele>
        <time>2019-07-16T11:44:47Z</time>
      </trkpt>
      <trkpt lat="47.58657" lon="-2.778">
        <ele>4.94</ele>
        <time>2019-07-16T11:45:02Z</time>
      </trkpt>
      <trkpt lat="47.58656" lon="-2.77774">
        <ele>4.94</ele>
        <time>2019-07-16T11:45:17Z</time>
      </trkpt>
      <trkpt lat="47.58657" lon="-2.77746">
        <ele>5.42</ele>
        <time>2019-07-16T11:45:32Z</time>
      </trkpt>
      <trkpt lat="47.58663" lon="-2.77724">
        <ele>5.42</ele>
        <time>2019-07-16T11:45:47Z</time>
      </trkpt>
      <trkpt lat="47.58676" lon="-2.77704">
        <ele>4.94</ele>
        <time>2019-07-16T11:46:01Z</time>
      </trkpt>
      <trkpt lat="47.5869" lon="-2.77688">
        <ele>4.46</ele>
        <time>2019-07-16T11:46:16Z</time>
      </trkpt>
      <trkpt lat="47.58704" lon="-2.77672">
        <ele>4.94</ele>
        <time>2019-07-16T11:46:31Z</time>
      </trkpt>
      <trkpt lat="47.58718" lon="-2.77675">
        <ele>5.42</ele>
        <time>2019-07-16T11:46:46Z</time>
      </trkpt>
      <trkpt lat="47.58721" lon="-2.77698">
        <ele>5.91</ele>
        <time>2019-07-16T11:47:01Z</time>
      </trkpt>
      <trkpt lat="47.58733" lon="-2.77707">
        <ele>5.91</ele>
        <time>2019-07-16T11:47:16Z</time>
      </trkpt>
      <trkpt lat="47.58754" lon="-2.77694">
        <ele>5.42</ele>
        <time>2019-07-16T11:47:31Z</time>
      </trkpt>
      <trkpt lat="47.58763" lon="-2.77671">
        <ele>4.94</ele>
        <time>2019-07-16T11:47:46Z</time>
      </trkpt>
      <trkpt lat="47.58766" lon="-2.77668">
        <ele>4.46</ele>
        <time>2019-07-16T11:48:01Z</time>
      </trkpt>
      <trkpt lat="47.58766" lon="-2.77669">
        <ele>4.94</ele>
        <time>2019-07-16T11:48:16Z</time>
      </trkpt>
      <trkpt lat="47.58766" lon="-2.77669">
        <ele>5.42</ele>
        <time>2019-07-16T11:48:31Z</time>
      </trkpt>
      <trkpt lat="47.58767" lon="-2.77669">
        <ele>4.94</ele>
        <time>2019-07-16T11:48:46Z</time>
      </trkpt>
      <trkpt lat="47.5877" lon="-2.77676">
        <ele>5.91</ele>
        <time>2019-07-16T11:49:01Z</time>
      </trkpt>
      <trkpt lat="47.58787" lon="-2.77686">
        <ele>5.42</ele>
        <time>2019-07-16T11:49:16Z</time>
      </trkpt>
      <trkpt lat="47.58803" lon="-2.77698">
        <ele>5.42</ele>
        <time>2019-07-16T11:49:31Z</time>
      </trkpt>
      <trkpt lat="47.58821" lon="-2.7771">
        <ele>4.94</ele>
        <time>2019-07-16T11:49:46Z</time>
      </trkpt>
      <trkpt lat="47.58836" lon="-2.77725">
        <ele>4.94</ele>
        <time>2019-07-16T11:50:01Z</time>
      </trkpt>
      <trkpt lat="47.58851" lon="-2.77738">
        <ele>4.94</ele>
        <time>2019-07-16T11:50:16Z</time>
      </trkpt>
      <trkpt lat="47.58865" lon="-2.7774">
        <ele>4.46</ele>
        <time>2019-07-16T11:50:31Z</time>
      </trkpt>
      <trkpt lat="47.58867" lon="-2.77742">
        <ele>3.98</ele>
        <time>2019-07-16T11:50:46Z</time>
      </trkpt>
      <trkpt lat="47.5888" lon="-2.7774">
        <ele>3.5</ele>
        <time>2019-07-16T11:51:01Z</time>
      </trkpt>
      <trkpt lat="47.58898" lon="-2.77738">
        <ele>3.5</ele>
        <time>2019-07-16T11:51:16Z</time>
      </trkpt>
      <trkpt lat="47.58917" lon="-2.7773">
        <ele>3.5</ele>
        <time>2019-07-16T11:51:31Z</time>
      </trkpt>
      <trkpt lat="47.58934" lon="-2.77723">
        <ele>3.98</ele>
        <time>2019-07-16T11:51:46Z</time>
      </trkpt>
      <trkpt lat="47.5895" lon="-2.77714">
        <ele>4.94</ele>
        <time>2019-07-16T11:52:01Z</time>
      </trkpt>
      <trkpt lat="47.58966" lon="-2.77704">
        <ele>5.91</ele>
        <time>2019-07-16T11:52:16Z</time>
      </trkpt>
      <trkpt lat="47.58978" lon="-2.77691">
        <ele>6.39</ele>
        <time>2019-07-16T11:52:31Z</time>
      </trkpt>
      <trkpt lat="47.58977" lon="-2.77678">
        <ele>5.42</ele>
        <time>2019-07-16T11:52:46Z</time>
      </trkpt>
      <trkpt lat="47.58981" lon="-2.77679">
        <ele>5.91</ele>
        <time>2019-07-16T11:53:01Z</time>
      </trkpt>
      <trkpt lat="47.58981" lon="-2.77676">
        <ele>5.91</ele>
        <time>2019-07-16T11:53:16Z</time>
      </trkpt>
      <trkpt lat="47.58982" lon="-2.77675">
        <ele>5.91</ele>
        <time>2019-07-16T11:53:31Z</time>
      </trkpt>
      <trkpt lat="47.58983" lon="-2.77674">
        <ele>5.91</ele>
        <time>2019-07-16T11:53:46Z</time>
      </trkpt>
      <trkpt lat="47.58983" lon="-2.77674">
        <ele>5.42</ele>
        <time>2019-07-16T11:54:01Z</time>
      </trkpt>
      <trkpt lat="47.58988" lon="-2.77675">
        <ele>5.91</ele>
        <time>2019-07-16T11:54:16Z</time>
      </trkpt>
      <trkpt lat="47.59003" lon="-2.77682">
        <ele>5.42</ele>
        <time>2019-07-16T11:54:31Z</time>
      </trkpt>
      <trkpt lat="47.59022" lon="-2.77692">
        <ele>4.46</ele>
        <time>2019-07-16T11:54:46Z</time>
      </trkpt>
      <trkpt lat="47.59039" lon="-2.77703">
        <ele>3.5</ele>
        <time>2019-07-16T11:55:01Z</time>
      </trkpt>
      <trkpt lat="47.5906" lon="-2.77701">
        <ele>2.06</ele>
        <time>2019-07-16T11:55:16Z</time>
      </trkpt>
      <trkpt lat="47.59079" lon="-2.77689">
        <ele>2.54</ele>
        <time>2019-07-16T11:55:31Z</time>
      </trkpt>
      <trkpt lat="47.59098" lon="-2.77679">
        <ele>2.54</ele>
        <time>2019-07-16T11:55:46Z</time>
      </trkpt>
      <trkpt lat="47.59117" lon="-2.77672">
        <ele>2.54</ele>
        <time>2019-07-16T11:56:01Z</time>
      </trkpt>
      <trkpt lat="47.59134" lon="-2.77656">
        <ele>2.06</ele>
        <time>2019-07-16T11:56:16Z</time>
      </trkpt>
      <trkpt lat="47.59149" lon="-2.77643">
        <ele>2.06</ele>
        <time>2019-07-16T11:56:31Z</time>
      </trkpt>
      <trkpt lat="47.59165" lon="-2.7763">
        <ele>2.06</ele>
        <time>2019-07-16T11:56:46Z</time>
      </trkpt>
      <trkpt lat="47.59179" lon="-2.77613">
        <ele>2.54</ele>
        <time>2019-07-16T11:57:01Z</time>
      </trkpt>
      <trkpt lat="47.59187" lon="-2.77598">
        <ele>2.54</ele>
        <time>2019-07-16T11:57:16Z</time>
      </trkpt>
      <trkpt lat="47.59186" lon="-2.77597">
        <ele>2.06</ele>
        <time>2019-07-16T11:57:31Z</time>
      </trkpt>
      <trkpt lat="47.5919" lon="-2.77597">
        <ele>3.02</ele>
        <time>2019-07-16T11:57:46Z</time>
      </trkpt>
      <trkpt lat="47.59189" lon="-2.77594">
        <ele>2.54</ele>
        <time>2019-07-16T11:58:01Z</time>
      </trkpt>
      <trkpt lat="47.59192" lon="-2.77589">
        <ele>2.06</ele>
        <time>2019-07-16T11:58:16Z</time>
      </trkpt>
      <trkpt lat="47.59205" lon="-2.77572">
        <ele>3.02</ele>
        <time>2019-07-16T11:58:31Z</time>
      </trkpt>
      <trkpt lat="47.59215" lon="-2.77559">
        <ele>3.02</ele>
        <time>2019-07-16T11:58:46Z</time>
      </trkpt>
      <trkpt lat="47.59227" lon="-2.77543">
        <ele>3.02</ele>
        <time>2019-07-16T11:59:01Z</time>
      </trkpt>
      <trkpt lat="47.59243" lon="-2.7753">
        <ele>2.54</ele>
        <time>2019-07-16T11:59:16Z</time>
      </trkpt>
      <trkpt lat="47.59259" lon="-2.77515">
        <ele>3.02</ele>
        <time>2019-07-16T11:59:31Z</time>
      </trkpt>
      <trkpt lat="47.59276" lon="-2.77496">
        <ele>2.54</ele>
        <time>2019-07-16T11:59:46Z</time>
      </trkpt>
      <trkpt lat="47.59294" lon="-2.77487">
        <ele>3.02</ele>
        <time>2019-07-16T12:00:01Z</time>
      </trkpt>
      <trkpt lat="47.59312" lon="-2.77479">
        <ele>3.02</ele>
        <time>2019-07-16T12:00:16Z</time>
      </trkpt>
      <trkpt lat="47.5933" lon="-2.77474">
        <ele>2.54</ele>
        <time>2019-07-16T12:00:31Z</time>
      </trkpt>
      <trkpt lat="47.59346" lon="-2.77484">
        <ele>2.54</ele>
        <time>2019-07-16T12:00:46Z</time>
      </trkpt>
      <trkpt lat="47.59362" lon="-2.77487">
        <ele>3.02</ele>
        <time>2019-07-16T12:01:01Z</time>
      </trkpt>
      <trkpt lat="47.59378" lon="-2.77483">
        <ele>3.02</ele>
        <time>2019-07-16T12:01:16Z</time>
      </trkpt>
      <trkpt lat="47.59394" lon="-2.77482">
        <ele>3.02</ele>
        <time>2019-07-16T12:01:31Z</time>
      </trkpt>
      <trkpt lat="47.59411" lon="-2.77477">
        <ele>2.54</ele>
        <time>2019-07-16T12:01:46Z</time>
      </trkpt>
      <trkpt lat="47.59425" lon="-2.77466">
        <ele>3.02</ele>
        <time>2019-07-16T12:02:01Z</time>
      </trkpt>
      <trkpt lat="47.59438" lon="-2.77456">
        <ele>3.02</ele>
        <time>2019-07-16T12:02:16Z</time>
      </trkpt>
      <trkpt lat="47.59451" lon="-2.77442">
        <ele>3.98</ele>
        <time>2019-07-16T12:02:31Z</time>
      </trkpt>
      <trkpt lat="47.59468" lon="-2.77436">
        <ele>3.02</ele>
        <time>2019-07-16T12:02:46Z</time>
      </trkpt>
      <trkpt lat="47.59484" lon="-2.77438">
        <ele>3.5</ele>
        <time>2019-07-16T12:03:01Z</time>
      </trkpt>
      <trkpt lat="47.59498" lon="-2.77456">
        <ele>3.5</ele>
        <time>2019-07-16T12:03:16Z</time>
      </trkpt>
      <trkpt lat="47.59514" lon="-2.7747">
        <ele>3.5</ele>
        <time>2019-07-16T12:03:31Z</time>
      </trkpt>
      <trkpt lat="47.59529" lon="-2.77484">
        <ele>3.5</ele>
        <time>2019-07-16T12:03:46Z</time>
      </trkpt>
      <trkpt lat="47.59538" lon="-2.77492">
        <ele>3.98</ele>
        <time>2019-07-16T12:04:01Z</time>
      </trkpt>
      <trkpt lat="47.59538" lon="-2.7749">
        <ele>3.98</ele>
        <time>2019-07-16T12:04:16Z</time>
      </trkpt>
      <trkpt lat="47.59541" lon="-2.77493">
        <ele>4.46</ele>
        <time>2019-07-16T12:04:31Z</time>
      </trkpt>
      <trkpt lat="47.59541" lon="-2.77494">
        <ele>3.5</ele>
        <time>2019-07-16T12:04:46Z</time>
      </trkpt>
      <trkpt lat="47.59543" lon="-2.77499">
        <ele>3.98</ele>
        <time>2019-07-16T12:05:01Z</time>
      </trkpt>
      <trkpt lat="47.59542" lon="-2.77499">
        <ele>3.98</ele>
        <time>2019-07-16T12:05:16Z</time>
      </trkpt>
      <trkpt lat="47.59542" lon="-2.77499">
        <ele>3.98</ele>
        <time>2019-07-16T12:05:31Z</time>
      </trkpt>
      <trkpt lat="47.59541" lon="-2.77499">
        <ele>3.98</ele>
        <time>2019-07-16T12:05:46Z</time>
      </trkpt>
      <trkpt lat="47.59541" lon="-2.77499">
        <ele>4.46</ele>
        <time>2019-07-16T12:06:01Z</time>
      </trkpt>
      <trkpt lat="47.59538" lon="-2.77507">
        <ele>3.98</ele>
        <time>2019-07-16T12:06:16Z</time>
      </trkpt>
      <trkpt lat="47.59531" lon="-2.77525">
        <ele>3.98</ele>
        <time>2019-07-16T12:06:31Z</time>
      </trkpt>
      <trkpt lat="47.59522" lon="-2.77551">
        <ele>3.98</ele>
        <time>2019-07-16T12:06:46Z</time>
      </trkpt>
      <trkpt lat="47.59515" lon="-2.7758">
        <ele>3.5</ele>
        <time>2019-07-16T12:07:01Z</time>
      </trkpt>
      <trkpt lat="47.5951" lon="-2.77605">
        <ele>3.5</ele>
        <time>2019-07-16T12:07:16Z</time>
      </trkpt>
      <trkpt lat="47.59504" lon="-2.77627">
        <ele>3.98</ele>
        <time>2019-07-16T12:07:31Z</time>
      </trkpt>
      <trkpt lat="47.59498" lon="-2.77649">
        <ele>3.5</ele>
        <time>2019-07-16T12:07:46Z</time>
      </trkpt>
      <trkpt lat="47.59496" lon="-2.77662">
        <ele>3.02</ele>
        <time>2019-07-16T12:08:01Z</time>
      </trkpt>
      <trkpt lat="47.59494" lon="-2.77663">
        <ele>2.54</ele>
        <time>2019-07-16T12:08:16Z</time>
      </trkpt>
      <trkpt lat="47.59495" lon="-2.77665">
        <ele>3.5</ele>
        <time>2019-07-16T12:08:31Z</time>
      </trkpt>
      <trkpt lat="47.59493" lon="-2.77665">
        <ele>3.02</ele>
        <time>2019-07-16T12:08:46Z</time>
      </trkpt>
      <trkpt lat="47.59492" lon="-2.77665">
        <ele>3.5</ele>
        <time>2019-07-16T12:09:01Z</time>
      </trkpt>
      <trkpt lat="47.59492" lon="-2.77667">
        <ele>3.5</ele>
        <time>2019-07-16T12:09:16Z</time>
      </trkpt>
      <trkpt lat="47.59495" lon="-2.7765">
        <ele>4.46</ele>
        <time>2019-07-16T12:09:31Z</time>
      </trkpt>
      <trkpt lat="47.59505" lon="-2.77625">
        <ele>3.98</ele>
        <time>2019-07-16T12:09:46Z</time>
      </trkpt>
      <trkpt lat="47.59509" lon="-2.77597">
        <ele>3.5</ele>
        <time>2019-07-16T12:10:01Z</time>
      </trkpt>
      <trkpt lat="47.59495" lon="-2.7758">
        <ele>3.98</ele>
        <time>2019-07-16T12:10:16Z</time>
      </trkpt>
      <trkpt lat="47.59477" lon="-2.77574">
        <ele>3.02</ele>
        <time>2019-07-16T12:10:31Z</time>
      </trkpt>
      <trkpt lat="47.59461" lon="-2.77581">
        <ele>3.98</ele>
        <time>2019-07-16T12:10:46Z</time>
      </trkpt>
      <trkpt lat="47.59442" lon="-2.77587">
        <ele>3.98</ele>
        <time>2019-07-16T12:11:01Z</time>
      </trkpt>
      <trkpt lat="47.59424" lon="-2.77596">
        <ele>3.5</ele>
        <time>2019-07-16T12:11:16Z</time>
      </trkpt>
      <trkpt lat="47.59408" lon="-2.77611">
        <ele>3.98</ele>
        <time>2019-07-16T12:11:31Z</time>
      </trkpt>
      <trkpt lat="47.59392" lon="-2.77619">
        <ele>3.02</ele>
        <time>2019-07-16T12:11:46Z</time>
      </trkpt>
      <trkpt lat="47.59375" lon="-2.77629">
        <ele>3.98</ele>
        <time>2019-07-16T12:12:01Z</time>
      </trkpt>
      <trkpt lat="47.59359" lon="-2.77643">
        <ele>4.46</ele>
        <time>2019-07-16T12:12:16Z</time>
      </trkpt>
      <trkpt lat="47.59343" lon="-2.77654">
        <ele>3.02</ele>
        <time>2019-07-16T12:12:31Z</time>
      </trkpt>
      <trkpt lat="47.59331" lon="-2.77675">
        <ele>3.98</ele>
        <time>2019-07-16T12:12:46Z</time>
      </trkpt>
      <trkpt lat="47.59324" lon="-2.77692">
        <ele>4.46</ele>
        <time>2019-07-16T12:13:01Z</time>
      </trkpt>
      <trkpt lat="47.59317" lon="-2.77708">
        <ele>3.98</ele>
        <time>2019-07-16T12:13:16Z</time>
      </trkpt>
      <trkpt lat="47.59305" lon="-2.77729">
        <ele>3.98</ele>
        <time>2019-07-16T12:13:31Z</time>
      </trkpt>
      <trkpt lat="47.59294" lon="-2.7775">
        <ele>4.46</ele>
        <time>2019-07-16T12:13:46Z</time>
      </trkpt>
      <trkpt lat="47.59294" lon="-2.77751">
        <ele>3.98</ele>
        <time>2019-07-16T12:14:01Z</time>
      </trkpt>
      <trkpt lat="47.59292" lon="-2.77749">
        <ele>3.02</ele>
        <time>2019-07-16T12:14:16Z</time>
      </trkpt>
      <trkpt lat="47.59292" lon="-2.77751">
        <ele>3.5</ele>
        <time>2019-07-16T12:14:31Z</time>
      </trkpt>
      <trkpt lat="47.59292" lon="-2.77753">
        <ele>3.02</ele>
        <time>2019-07-16T12:14:46Z</time>
      </trkpt>
      <trkpt lat="47.59291" lon="-2.77752">
        <ele>3.5</ele>
        <time>2019-07-16T12:15:01Z</time>
      </trkpt>
      <trkpt lat="47.59291" lon="-2.77748">
        <ele>3.5</ele>
        <time>2019-07-16T12:15:16Z</time>
      </trkpt>
      <trkpt lat="47.59292" lon="-2.77752">
        <ele>3.5</ele>
        <time>2019-07-16T12:15:31Z</time>
      </trkpt>
      <trkpt lat="47.59292" lon="-2.77752">
        <ele>3.98</ele>
        <time>2019-07-16T12:15:46Z</time>
      </trkpt>
      <trkpt lat="47.59292" lon="-2.77753">
        <ele>3.98</ele>
        <time>2019-07-16T12:16:01Z</time>
      </trkpt>
      <trkpt lat="47.59293" lon="-2.7775">
        <ele>3.98</ele>
        <time>2019-07-16T12:16:16Z</time>
      </trkpt>
      <trkpt lat="47.59293" lon="-2.77752">
        <ele>3.98</ele>
        <time>2019-07-16T12:16:31Z</time>
      </trkpt>
      <trkpt lat="47.5929" lon="-2.77751">
        <ele>3.5</ele>
        <time>2019-07-16T12:16:46Z</time>
      </trkpt>
      <trkpt lat="47.59291" lon="-2.77754">
        <ele>3.98</ele>
        <time>2019-07-16T12:17:01Z</time>
      </trkpt>
      <trkpt lat="47.59292" lon="-2.77755">
        <ele>3.98</ele>
        <time>2019-07-16T12:17:16Z</time>
      </trkpt>
      <trkpt lat="47.59289" lon="-2.77761">
        <ele>4.46</ele>
        <time>2019-07-16T12:17:31Z</time>
      </trkpt>
      <trkpt lat="47.59282" lon="-2.77775">
        <ele>4.46</ele>
        <time>2019-07-16T12:17:46Z</time>
      </trkpt>
      <trkpt lat="47.59273" lon="-2.778">
        <ele>4.46</ele>
        <time>2019-07-16T12:18:01Z</time>
      </trkpt>
      <trkpt lat="47.59266" lon="-2.77818">
        <ele>4.46</ele>
        <time>2019-07-16T12:18:16Z</time>
      </trkpt>
      <trkpt lat="47.59267" lon="-2.77841">
        <ele>3.5</ele>
        <time>2019-07-16T12:18:31Z</time>
      </trkpt>
      <trkpt lat="47.59269" lon="-2.77867">
        <ele>4.94</ele>
        <time>2019-07-16T12:18:46Z</time>
      </trkpt>
      <trkpt lat="47.59273" lon="-2.77896">
        <ele>4.46</ele>
        <time>2019-07-16T12:19:01Z</time>
      </trkpt>
      <trkpt lat="47.59281" lon="-2.77919">
        <ele>4.94</ele>
        <time>2019-07-16T12:19:16Z</time>
      </trkpt>
      <trkpt lat="47.59287" lon="-2.77942">
        <ele>4.94</ele>
        <time>2019-07-16T12:19:31Z</time>
      </trkpt>
      <trkpt lat="47.59296" lon="-2.77965">
        <ele>3.98</ele>
        <time>2019-07-16T12:19:46Z</time>
      </trkpt>
      <trkpt lat="47.59311" lon="-2.77982">
        <ele>4.94</ele>
        <time>2019-07-16T12:20:01Z</time>
      </trkpt>
      <trkpt lat="47.59321" lon="-2.78004">
        <ele>4.94</ele>
        <time>2019-07-16T12:20:16Z</time>
      </trkpt>
      <trkpt lat="47.59329" lon="-2.7803">
        <ele>4.46</ele>
        <time>2019-07-16T12:20:31Z</time>
      </trkpt>
      <trkpt lat="47.59334" lon="-2.78056">
        <ele>4.46</ele>
        <time>2019-07-16T12:20:46Z</time>
      </trkpt>
      <trkpt lat="47.59339" lon="-2.7808">
        <ele>4.94</ele>
        <time>2019-07-16T12:21:01Z</time>
      </trkpt>
      <trkpt lat="47.5934" lon="-2.78107">
        <ele>4.94</ele>
        <time>2019-07-16T12:21:16Z</time>
      </trkpt>
      <trkpt lat="47.5934" lon="-2.78133">
        <ele>5.91</ele>
        <time>2019-07-16T12:21:31Z</time>
      </trkpt>
      <trkpt lat="47.5934" lon="-2.78161">
        <ele>5.42</ele>
        <time>2019-07-16T12:21:46Z</time>
      </trkpt>
      <trkpt lat="47.59339" lon="-2.78183">
        <ele>4.94</ele>
        <time>2019-07-16T12:22:01Z</time>
      </trkpt>
      <trkpt lat="47.59334" lon="-2.78211">
        <ele>5.42</ele>
        <time>2019-07-16T12:22:16Z</time>
      </trkpt>
      <trkpt lat="47.59327" lon="-2.78239">
        <ele>5.42</ele>
        <time>2019-07-16T12:22:31Z</time>
      </trkpt>
      <trkpt lat="47.59319" lon="-2.78266">
        <ele>5.42</ele>
        <time>2019-07-16T12:22:46Z</time>
      </trkpt>
      <trkpt lat="47.59316" lon="-2.78295">
        <ele>5.42</ele>
        <time>2019-07-16T12:23:01Z</time>
      </trkpt>
      <trkpt lat="47.59309" lon="-2.78321">
        <ele>5.91</ele>
        <time>2019-07-16T12:23:16Z</time>
      </trkpt>
      <trkpt lat="47.59296" lon="-2.78337">
        <ele>5.42</ele>
        <time>2019-07-16T12:23:31Z</time>
      </trkpt>
      <trkpt lat="47.59286" lon="-2.78351">
        <ele>4.46</ele>
        <time>2019-07-16T12:23:46Z</time>
      </trkpt>
      <trkpt lat="47.59271" lon="-2.78369">
        <ele>4.94</ele>
        <time>2019-07-16T12:24:01Z</time>
      </trkpt>
      <trkpt lat="47.59255" lon="-2.78382">
        <ele>5.42</ele>
        <time>2019-07-16T12:24:16Z</time>
      </trkpt>
      <trkpt lat="47.59238" lon="-2.78394">
        <ele>4.46</ele>
        <time>2019-07-16T12:24:31Z</time>
      </trkpt>
      <trkpt lat="47.59221" lon="-2.78402">
        <ele>4.46</ele>
        <time>2019-07-16T12:24:46Z</time>
      </trkpt>
      <trkpt lat="47.59204" lon="-2.78403">
        <ele>4.94</ele>
        <time>2019-07-16T12:25:01Z</time>
      </trkpt>
      <trkpt lat="47.59189" lon="-2.78416">
        <ele>5.42</ele>
        <time>2019-07-16T12:25:16Z</time>
      </trkpt>
      <trkpt lat="47.59175" lon="-2.78433">
        <ele>5.42</ele>
        <time>2019-07-16T12:25:31Z</time>
      </trkpt>
      <trkpt lat="47.59167" lon="-2.78447">
        <ele>5.42</ele>
        <time>2019-07-16T12:25:46Z</time>
      </trkpt>
      <trkpt lat="47.59167" lon="-2.78446">
        <ele>4.94</ele>
        <time>2019-07-16T12:26:01Z</time>
      </trkpt>
      <trkpt lat="47.59167" lon="-2.78447">
        <ele>4.94</ele>
        <time>2019-07-16T12:26:16Z</time>
      </trkpt>
      <trkpt lat="47.59168" lon="-2.78447">
        <ele>5.42</ele>
        <time>2019-07-16T12:26:31Z</time>
      </trkpt>
      <trkpt lat="47.59169" lon="-2.78448">
        <ele>5.42</ele>
        <time>2019-07-16T12:26:46Z</time>
      </trkpt>
      <trkpt lat="47.59172" lon="-2.78451">
        <ele>5.42</ele>
        <time>2019-07-16T12:27:01Z</time>
      </trkpt>
      <trkpt lat="47.59175" lon="-2.78478">
        <ele>5.42</ele>
        <time>2019-07-16T12:27:16Z</time>
      </trkpt>
      <trkpt lat="47.59179" lon="-2.78506">
        <ele>5.91</ele>
        <time>2019-07-16T12:27:31Z</time>
      </trkpt>
      <trkpt lat="47.59187" lon="-2.78531">
        <ele>5.91</ele>
        <time>2019-07-16T12:27:46Z</time>
      </trkpt>
      <trkpt lat="47.59198" lon="-2.78546">
        <ele>5.91</ele>
        <time>2019-07-16T12:28:01Z</time>
      </trkpt>
      <trkpt lat="47.5921" lon="-2.78556">
        <ele>6.39</ele>
        <time>2019-07-16T12:28:16Z</time>
      </trkpt>
      <trkpt lat="47.59227" lon="-2.78571">
        <ele>6.39</ele>
        <time>2019-07-16T12:28:31Z</time>
      </trkpt>
      <trkpt lat="47.59243" lon="-2.78586">
        <ele>6.87</ele>
        <time>2019-07-16T12:28:46Z</time>
      </trkpt>
      <trkpt lat="47.59258" lon="-2.78604">
        <ele>6.39</ele>
        <time>2019-07-16T12:29:01Z</time>
      </trkpt>
      <trkpt lat="47.59272" lon="-2.78623">
        <ele>6.39</ele>
        <time>2019-07-16T12:29:16Z</time>
      </trkpt>
      <trkpt lat="47.59287" lon="-2.7864">
        <ele>6.39</ele>
        <time>2019-07-16T12:29:31Z</time>
      </trkpt>
      <trkpt lat="47.59298" lon="-2.78661">
        <ele>6.39</ele>
        <time>2019-07-16T12:29:46Z</time>
      </trkpt>
      <trkpt lat="47.59312" lon="-2.78681">
        <ele>6.39</ele>
        <time>2019-07-16T12:30:01Z</time>
      </trkpt>
      <trkpt lat="47.59323" lon="-2.78702">
        <ele>6.39</ele>
        <time>2019-07-16T12:30:16Z</time>
      </trkpt>
      <trkpt lat="47.59333" lon="-2.78722">
        <ele>6.87</ele>
        <time>2019-07-16T12:30:31Z</time>
      </trkpt>
      <trkpt lat="47.5934" lon="-2.78735">
        <ele>6.87</ele>
        <time>2019-07-16T12:30:46Z</time>
      </trkpt>
      <trkpt lat="47.59349" lon="-2.78759">
        <ele>7.35</ele>
        <time>2019-07-16T12:31:01Z</time>
      </trkpt>
      <trkpt lat="47.59358" lon="-2.78784">
        <ele>7.35</ele>
        <time>2019-07-16T12:31:16Z</time>
      </trkpt>
      <trkpt lat="47.59365" lon="-2.78809">
        <ele>6.87</ele>
        <time>2019-07-16T12:31:31Z</time>
      </trkpt>
      <trkpt lat="47.59372" lon="-2.78834">
        <ele>6.87</ele>
        <time>2019-07-16T12:31:46Z</time>
      </trkpt>
      <trkpt lat="47.59379" lon="-2.78858">
        <ele>7.35</ele>
        <time>2019-07-16T12:32:01Z</time>
      </trkpt>
      <trkpt lat="47.59385" lon="-2.78884">
        <ele>7.35</ele>
        <time>2019-07-16T12:32:16Z</time>
      </trkpt>
      <trkpt lat="47.59391" lon="-2.78909">
        <ele>7.35</ele>
        <time>2019-07-16T12:32:31Z</time>
      </trkpt>
      <trkpt lat="47.59402" lon="-2.7892">
        <ele>6.87</ele>
        <time>2019-07-16T12:32:46Z</time>
      </trkpt>
      <trkpt lat="47.59412" lon="-2.78903">
        <ele>5.91</ele>
        <time>2019-07-16T12:33:01Z</time>
      </trkpt>
      <trkpt lat="47.59421" lon="-2.78881">
        <ele>6.87</ele>
        <time>2019-07-16T12:33:16Z</time>
      </trkpt>
      <trkpt lat="47.59431" lon="-2.78858">
        <ele>6.87</ele>
        <time>2019-07-16T12:33:31Z</time>
      </trkpt>
      <trkpt lat="47.59439" lon="-2.78835">
        <ele>6.39</ele>
        <time>2019-07-16T12:33:46Z</time>
      </trkpt>
      <trkpt lat="47.59447" lon="-2.78808">
        <ele>6.39</ele>
        <time>2019-07-16T12:34:01Z</time>
      </trkpt>
      <trkpt lat="47.59454" lon="-2.78782">
        <ele>6.39</ele>
        <time>2019-07-16T12:34:16Z</time>
      </trkpt>
      <trkpt lat="47.59464" lon="-2.78757">
        <ele>5.91</ele>
        <time>2019-07-16T12:34:31Z</time>
      </trkpt>
      <trkpt lat="47.59471" lon="-2.78741">
        <ele>6.39</ele>
        <time>2019-07-16T12:34:46Z</time>
      </trkpt>
      <trkpt lat="47.59483" lon="-2.7872">
        <ele>5.91</ele>
        <time>2019-07-16T12:35:01Z</time>
      </trkpt>
      <trkpt lat="47.59493" lon="-2.78697">
        <ele>5.42</ele>
        <time>2019-07-16T12:35:16Z</time>
      </trkpt>
      <trkpt lat="47.59504" lon="-2.78675">
        <ele>5.42</ele>
        <time>2019-07-16T12:35:31Z</time>
      </trkpt>
      <trkpt lat="47.59505" lon="-2.78661">
        <ele>5.42</ele>
        <time>2019-07-16T12:35:46Z</time>
      </trkpt>
      <trkpt lat="47.59505" lon="-2.7866">
        <ele>4.94</ele>
        <time>2019-07-16T12:36:01Z</time>
      </trkpt>
      <trkpt lat="47.59506" lon="-2.78668">
        <ele>4.94</ele>
        <time>2019-07-16T12:36:16Z</time>
      </trkpt>
      <trkpt lat="47.5951" lon="-2.78677">
        <ele>4.94</ele>
        <time>2019-07-16T12:36:31Z</time>
      </trkpt>
      <trkpt lat="47.5951" lon="-2.78678">
        <ele>4.94</ele>
        <time>2019-07-16T12:36:46Z</time>
      </trkpt>
      <trkpt lat="47.5951" lon="-2.7868">
        <ele>5.42</ele>
        <time>2019-07-16T12:37:01Z</time>
      </trkpt>
      <trkpt lat="47.5951" lon="-2.7868">
        <ele>5.42</ele>
        <time>2019-07-16T12:37:16Z</time>
      </trkpt>
      <trkpt lat="47.59509" lon="-2.78681">
        <ele>5.42</ele>
        <time>2019-07-16T12:37:31Z</time>
      </trkpt>
      <trkpt lat="47.59508" lon="-2.78679">
        <ele>4.94</ele>
        <time>2019-07-16T12:37:46Z</time>
      </trkpt>
      <trkpt lat="47.59511" lon="-2.78678">
        <ele>4.46</ele>
        <time>2019-07-16T12:38:01Z</time>
      </trkpt>
      <trkpt lat="47.59509" lon="-2.78676">
        <ele>4.46</ele>
        <time>2019-07-16T12:38:16Z</time>
      </trkpt>
      <trkpt lat="47.59509" lon="-2.78677">
        <ele>3.98</ele>
        <time>2019-07-16T12:38:31Z</time>
      </trkpt>
      <trkpt lat="47.59509" lon="-2.78677">
        <ele>4.46</ele>
        <time>2019-07-16T12:38:46Z</time>
      </trkpt>
      <trkpt lat="47.5951" lon="-2.78677">
        <ele>4.46</ele>
        <time>2019-07-16T12:39:01Z</time>
      </trkpt>
      <trkpt lat="47.5951" lon="-2.78677">
        <ele>4.46</ele>
        <time>2019-07-16T12:39:16Z</time>
      </trkpt>
      <trkpt lat="47.5951" lon="-2.78678">
        <ele>4.46</ele>
        <time>2019-07-16T12:39:31Z</time>
      </trkpt>
      <trkpt lat="47.59509" lon="-2.78679">
        <ele>4.46</ele>
        <time>2019-07-16T12:39:46Z</time>
      </trkpt>
      <trkpt lat="47.5951" lon="-2.78677">
        <ele>3.98</ele>
        <time>2019-07-16T12:40:01Z</time>
      </trkpt>
      <trkpt lat="47.5951" lon="-2.78677">
        <ele>4.46</ele>
        <time>2019-07-16T12:40:16Z</time>
      </trkpt>
      <trkpt lat="47.59509" lon="-2.78679">
        <ele>5.42</ele>
        <time>2019-07-16T12:40:31Z</time>
      </trkpt>
      <trkpt lat="47.59513" lon="-2.78679">
        <ele>5.91</ele>
        <time>2019-07-16T12:40:46Z</time>
      </trkpt>
      <trkpt lat="47.5953" lon="-2.7869">
        <ele>5.91</ele>
        <time>2019-07-16T12:41:01Z</time>
      </trkpt>
      <trkpt lat="47.59548" lon="-2.78701">
        <ele>5.91</ele>
        <time>2019-07-16T12:41:16Z</time>
      </trkpt>
      <trkpt lat="47.59566" lon="-2.7871">
        <ele>5.91</ele>
        <time>2019-07-16T12:41:31Z</time>
      </trkpt>
      <trkpt lat="47.59582" lon="-2.78717">
        <ele>5.42</ele>
        <time>2019-07-16T12:41:46Z</time>
      </trkpt>
      <trkpt lat="47.59599" lon="-2.78725">
        <ele>5.42</ele>
        <time>2019-07-16T12:42:01Z</time>
      </trkpt>
      <trkpt lat="47.59617" lon="-2.78735">
        <ele>5.42</ele>
        <time>2019-07-16T12:42:16Z</time>
      </trkpt>
      <trkpt lat="47.59634" lon="-2.78743">
        <ele>5.42</ele>
        <time>2019-07-16T12:42:31Z</time>
      </trkpt>
      <trkpt lat="47.59651" lon="-2.78754">
        <ele>4.94</ele>
        <time>2019-07-16T12:42:46Z</time>
      </trkpt>
      <trkpt lat="47.59667" lon="-2.78765">
        <ele>5.91</ele>
        <time>2019-07-16T12:43:01Z</time>
      </trkpt>
      <trkpt lat="47.59683" lon="-2.78773">
        <ele>5.91</ele>
        <time>2019-07-16T12:43:16Z</time>
      </trkpt>
      <trkpt lat="47.597" lon="-2.78773">
        <ele>5.91</ele>
        <time>2019-07-16T12:43:31Z</time>
      </trkpt>
      <trkpt lat="47.59705" lon="-2.78779">
        <ele>6.39</ele>
        <time>2019-07-16T12:43:46Z</time>
      </trkpt>
      <trkpt lat="47.59713" lon="-2.78781">
        <ele>5.91</ele>
        <time>2019-07-16T12:44:01Z</time>
      </trkpt>
      <trkpt lat="47.59732" lon="-2.78787">
        <ele>5.42</ele>
        <time>2019-07-16T12:44:16Z</time>
      </trkpt>
      <trkpt lat="47.59751" lon="-2.78787">
        <ele>5.91</ele>
        <time>2019-07-16T12:44:31Z</time>
      </trkpt>
      <trkpt lat="47.59772" lon="-2.78786">
        <ele>5.42</ele>
        <time>2019-07-16T12:44:46Z</time>
      </trkpt>
      <trkpt lat="47.59789" lon="-2.78776">
        <ele>5.91</ele>
        <time>2019-07-16T12:45:01Z</time>
      </trkpt>
      <trkpt lat="47.59807" lon="-2.78768">
        <ele>5.91</ele>
        <time>2019-07-16T12:45:16Z</time>
      </trkpt>
      <trkpt lat="47.59822" lon="-2.78753">
        <ele>5.42</ele>
        <time>2019-07-16T12:45:31Z</time>
      </trkpt>
      <trkpt lat="47.59834" lon="-2.78733">
        <ele>5.42</ele>
        <time>2019-07-16T12:45:46Z</time>
      </trkpt>
      <trkpt lat="47.59852" lon="-2.78724">
        <ele>6.39</ele>
        <time>2019-07-16T12:46:01Z</time>
      </trkpt>
      <trkpt lat="47.5987" lon="-2.78723">
        <ele>6.39</ele>
        <time>2019-07-16T12:46:16Z</time>
      </trkpt>
      <trkpt lat="47.59887" lon="-2.78719">
        <ele>6.39</ele>
        <time>2019-07-16T12:46:31Z</time>
      </trkpt>
      <trkpt lat="47.59905" lon="-2.78726">
        <ele>5.91</ele>
        <time>2019-07-16T12:46:46Z</time>
      </trkpt>
      <trkpt lat="47.59907" lon="-2.78727">
        <ele>4.94</ele>
        <time>2019-07-16T12:47:01Z</time>
      </trkpt>
      <trkpt lat="47.59909" lon="-2.7873">
        <ele>5.91</ele>
        <time>2019-07-16T12:47:16Z</time>
      </trkpt>
      <trkpt lat="47.59927" lon="-2.78742">
        <ele>6.39</ele>
        <time>2019-07-16T12:47:31Z</time>
      </trkpt>
      <trkpt lat="47.59944" lon="-2.78754">
        <ele>5.91</ele>
        <time>2019-07-16T12:47:46Z</time>
      </trkpt>
      <trkpt lat="47.59961" lon="-2.78766">
        <ele>5.91</ele>
        <time>2019-07-16T12:48:01Z</time>
      </trkpt>
      <trkpt lat="47.59969" lon="-2.78792">
        <ele>6.39</ele>
        <time>2019-07-16T12:48:16Z</time>
      </trkpt>
      <trkpt lat="47.59979" lon="-2.78816">
        <ele>5.91</ele>
        <time>2019-07-16T12:48:31Z</time>
      </trkpt>
      <trkpt lat="47.59989" lon="-2.7884">
        <ele>5.91</ele>
        <time>2019-07-16T12:48:46Z</time>
      </trkpt>
      <trkpt lat="47.6" lon="-2.78862">
        <ele>5.91</ele>
        <time>2019-07-16T12:49:01Z</time>
      </trkpt>
      <trkpt lat="47.60013" lon="-2.78878">
        <ele>6.39</ele>
        <time>2019-07-16T12:49:16Z</time>
      </trkpt>
      <trkpt lat="47.60019" lon="-2.78895">
        <ele>5.91</ele>
        <time>2019-07-16T12:49:31Z</time>
      </trkpt>
      <trkpt lat="47.6003" lon="-2.7891">
        <ele>6.87</ele>
        <time>2019-07-16T12:49:46Z</time>
      </trkpt>
      <trkpt lat="47.60042" lon="-2.78925">
        <ele>6.39</ele>
        <time>2019-07-16T12:50:01Z</time>
      </trkpt>
      <trkpt lat="47.60053" lon="-2.78942">
        <ele>6.39</ele>
        <time>2019-07-16T12:50:16Z</time>
      </trkpt>
      <trkpt lat="47.60066" lon="-2.78958">
        <ele>6.39</ele>
        <time>2019-07-16T12:50:31Z</time>
      </trkpt>
      <trkpt lat="47.60065" lon="-2.78962">
        <ele>5.91</ele>
        <time>2019-07-16T12:50:46Z</time>
      </trkpt>
      <trkpt lat="47.60066" lon="-2.78963">
        <ele>6.87</ele>
        <time>2019-07-16T12:51:01Z</time>
      </trkpt>
      <trkpt lat="47.60068" lon="-2.78967">
        <ele>6.39</ele>
        <time>2019-07-16T12:51:16Z</time>
      </trkpt>
      <trkpt lat="47.60069" lon="-2.7897">
        <ele>6.39</ele>
        <time>2019-07-16T12:51:31Z</time>
      </trkpt>
      <trkpt lat="47.60073" lon="-2.78979">
        <ele>5.42</ele>
        <time>2019-07-16T12:51:46Z</time>
      </trkpt>
      <trkpt lat="47.60081" lon="-2.78991">
        <ele>6.39</ele>
        <time>2019-07-16T12:52:01Z</time>
      </trkpt>
      <trkpt lat="47.60091" lon="-2.7901">
        <ele>6.39</ele>
        <time>2019-07-16T12:52:16Z</time>
      </trkpt>
      <trkpt lat="47.60102" lon="-2.79031">
        <ele>5.42</ele>
        <time>2019-07-16T12:52:31Z</time>
      </trkpt>
      <trkpt lat="47.60105" lon="-2.79056">
        <ele>5.91</ele>
        <time>2019-07-16T12:52:46Z</time>
      </trkpt>
      <trkpt lat="47.60106" lon="-2.79066">
        <ele>5.91</ele>
        <time>2019-07-16T12:53:01Z</time>
      </trkpt>
      <trkpt lat="47.60106" lon="-2.79078">
        <ele>5.91</ele>
        <time>2019-07-16T12:53:16Z</time>
      </trkpt>
      <trkpt lat="47.60101" lon="-2.79103">
        <ele>6.39</ele>
        <time>2019-07-16T12:53:31Z</time>
      </trkpt>
      <trkpt lat="47.60091" lon="-2.79124">
        <ele>6.39</ele>
        <time>2019-07-16T12:53:46Z</time>
      </trkpt>
      <trkpt lat="47.60083" lon="-2.79147">
        <ele>5.42</ele>
        <time>2019-07-16T12:54:01Z</time>
      </trkpt>
      <trkpt lat="47.60085" lon="-2.79171">
        <ele>5.91</ele>
        <time>2019-07-16T12:54:16Z</time>
      </trkpt>
      <trkpt lat="47.60089" lon="-2.79193">
        <ele>6.87</ele>
        <time>2019-07-16T12:54:31Z</time>
      </trkpt>
      <trkpt lat="47.60096" lon="-2.79215">
        <ele>6.39</ele>
        <time>2019-07-16T12:54:46Z</time>
      </trkpt>
      <trkpt lat="47.60101" lon="-2.79234">
        <ele>6.39</ele>
        <time>2019-07-16T12:55:01Z</time>
      </trkpt>
      <trkpt lat="47.60108" lon="-2.79246">
        <ele>6.39</ele>
        <time>2019-07-16T12:55:16Z</time>
      </trkpt>
      <trkpt lat="47.60109" lon="-2.79258">
        <ele>6.39</ele>
        <time>2019-07-16T12:55:31Z</time>
      </trkpt>
      <trkpt lat="47.60113" lon="-2.79268">
        <ele>6.39</ele>
        <time>2019-07-16T12:55:46Z</time>
      </trkpt>
      <trkpt lat="47.60108" lon="-2.79269">
        <ele>3.5</ele>
        <time>2019-07-16T12:56:01Z</time>
      </trkpt>
      <trkpt lat="47.6011" lon="-2.79268">
        <ele>3.5</ele>
        <time>2019-07-16T12:56:16Z</time>
      </trkpt>
      <trkpt lat="47.6011" lon="-2.79267">
        <ele>3.98</ele>
        <time>2019-07-16T12:56:31Z</time>
      </trkpt>
      <trkpt lat="47.60109" lon="-2.79268">
        <ele>5.91</ele>
        <time>2019-07-16T12:56:46Z</time>
      </trkpt>
      <trkpt lat="47.60114" lon="-2.79265">
        <ele>6.39</ele>
        <time>2019-07-16T12:57:01Z</time>
      </trkpt>
      <trkpt lat="47.6011" lon="-2.79276">
        <ele>4.94</ele>
        <time>2019-07-16T12:57:16Z</time>
      </trkpt>
      <trkpt lat="47.6011" lon="-2.79277">
        <ele>3.98</ele>
        <time>2019-07-16T12:57:31Z</time>
      </trkpt>
      <trkpt lat="47.60111" lon="-2.79276">
        <ele>3.98</ele>
        <time>2019-07-16T12:57:46Z</time>
      </trkpt>
      <trkpt lat="47.60117" lon="-2.79278">
        <ele>6.87</ele>
        <time>2019-07-16T12:58:01Z</time>
      </trkpt>
      <trkpt lat="47.60122" lon="-2.79294">
        <ele>6.39</ele>
        <time>2019-07-16T12:58:16Z</time>
      </trkpt>
      <trkpt lat="47.60127" lon="-2.79317">
        <ele>5.91</ele>
        <time>2019-07-16T12:58:31Z</time>
      </trkpt>
      <trkpt lat="47.60132" lon="-2.7934">
        <ele>6.87</ele>
        <time>2019-07-16T12:58:46Z</time>
      </trkpt>
      <trkpt lat="47.60137" lon="-2.79365">
        <ele>6.87</ele>
        <time>2019-07-16T12:59:01Z</time>
      </trkpt>
      <trkpt lat="47.60143" lon="-2.79389">
        <ele>6.39</ele>
        <time>2019-07-16T12:59:16Z</time>
      </trkpt>
      <trkpt lat="47.60157" lon="-2.79402">
        <ele>6.39</ele>
        <time>2019-07-16T12:59:31Z</time>
      </trkpt>
      <trkpt lat="47.60174" lon="-2.79411">
        <ele>5.91</ele>
        <time>2019-07-16T12:59:46Z</time>
      </trkpt>
      <trkpt lat="47.60192" lon="-2.79411">
        <ele>5.91</ele>
        <time>2019-07-16T13:00:01Z</time>
      </trkpt>
      <trkpt lat="47.60209" lon="-2.79411">
        <ele>6.39</ele>
        <time>2019-07-16T13:00:16Z</time>
      </trkpt>
      <trkpt lat="47.60225" lon="-2.79403">
        <ele>5.91</ele>
        <time>2019-07-16T13:00:31Z</time>
      </trkpt>
      <trkpt lat="47.60241" lon="-2.79395">
        <ele>5.42</ele>
        <time>2019-07-16T13:00:46Z</time>
      </trkpt>
      <trkpt lat="47.60258" lon="-2.79386">
        <ele>5.91</ele>
        <time>2019-07-16T13:01:01Z</time>
      </trkpt>
      <trkpt lat="47.60271" lon="-2.79369">
        <ele>5.91</ele>
        <time>2019-07-16T13:01:16Z</time>
      </trkpt>
      <trkpt lat="47.60287" lon="-2.79356">
        <ele>6.39</ele>
        <time>2019-07-16T13:01:31Z</time>
      </trkpt>
      <trkpt lat="47.60305" lon="-2.79348">
        <ele>5.91</ele>
        <time>2019-07-16T13:01:46Z</time>
      </trkpt>
      <trkpt lat="47.60321" lon="-2.79336">
        <ele>5.91</ele>
        <time>2019-07-16T13:02:01Z</time>
      </trkpt>
      <trkpt lat="47.60338" lon="-2.79328">
        <ele>5.91</ele>
        <time>2019-07-16T13:02:16Z</time>
      </trkpt>
      <trkpt lat="47.60353" lon="-2.79312">
        <ele>5.42</ele>
        <time>2019-07-16T13:02:31Z</time>
      </trkpt>
      <trkpt lat="47.60367" lon="-2.79296">
        <ele>5.91</ele>
        <time>2019-07-16T13:02:46Z</time>
      </trkpt>
      <trkpt lat="47.60381" lon="-2.7928">
        <ele>6.39</ele>
        <time>2019-07-16T13:03:01Z</time>
      </trkpt>
      <trkpt lat="47.60396" lon="-2.79266">
        <ele>6.39</ele>
        <time>2019-07-16T13:03:16Z</time>
      </trkpt>
      <trkpt lat="47.60414" lon="-2.79268">
        <ele>6.39</ele>
        <time>2019-07-16T13:03:31Z</time>
      </trkpt>
      <trkpt lat="47.60432" lon="-2.79261">
        <ele>6.39</ele>
        <time>2019-07-16T13:03:46Z</time>
      </trkpt>
      <trkpt lat="47.60449" lon="-2.79253">
        <ele>6.87</ele>
        <time>2019-07-16T13:04:01Z</time>
      </trkpt>
      <trkpt lat="47.60465" lon="-2.79261">
        <ele>6.87</ele>
        <time>2019-07-16T13:04:16Z</time>
      </trkpt>
      <trkpt lat="47.60468" lon="-2.7926">
        <ele>6.87</ele>
        <time>2019-07-16T13:04:31Z</time>
      </trkpt>
      <trkpt lat="47.60483" lon="-2.7927">
        <ele>6.87</ele>
        <time>2019-07-16T13:04:46Z</time>
      </trkpt>
      <trkpt lat="47.60498" lon="-2.79284">
        <ele>7.35</ele>
        <time>2019-07-16T13:05:01Z</time>
      </trkpt>
      <trkpt lat="47.60512" lon="-2.79293">
        <ele>7.35</ele>
        <time>2019-07-16T13:05:16Z</time>
      </trkpt>
      <trkpt lat="47.60523" lon="-2.79285">
        <ele>5.42</ele>
        <time>2019-07-16T13:05:31Z</time>
      </trkpt>
      <trkpt lat="47.60538" lon="-2.79297">
        <ele>5.91</ele>
        <time>2019-07-16T13:05:46Z</time>
      </trkpt>
      <trkpt lat="47.60551" lon="-2.79313">
        <ele>5.91</ele>
        <time>2019-07-16T13:06:01Z</time>
      </trkpt>
      <trkpt lat="47.60559" lon="-2.79319">
        <ele>6.87</ele>
        <time>2019-07-16T13:06:16Z</time>
      </trkpt>
    </trkseg>
  </trk>
</gpx>